<?xml version="1.0" encoding="UTF-8" standalone="no" ?>
<gpx xmlns="http://www.topografix.com/GPX/1/1" xmlns:xsi="http://www.w3.org/2001/XMLSchema-instance" xsi:schemaLocation="http://www.topografix.com/GPX/1/1 http://www.topografix.com/GPX/1/1/gpx.xsd" version="1.1" creator="VisuGPX - https://www.visugpx.com">
  <metadata>
    <name>Did Dunieres 37-1000</name>
  </metadata>
  <trk>
    <name><![CDATA[Did Dunieres 37-1000]]></name>
    <trkseg>
      <trkpt lat="45.30698" lon="4.28012">
        <ele>848.76623535156</ele>
        <time>2020-06-19T15:12:55.000Z</time>
      </trkpt>
      <trkpt lat="45.30682" lon="4.27978">
        <ele>847.63348388672</ele>
        <time>2020-06-19T15:12:55.010Z</time>
      </trkpt>
      <trkpt lat="45.3065" lon="4.27995">
        <ele>842.63366699219</ele>
        <time>2020-06-19T15:12:55.032Z</time>
      </trkpt>
      <trkpt lat="45.30623" lon="4.27988">
        <ele>839.48718261719</ele>
        <time>2020-06-19T15:12:55.063Z</time>
      </trkpt>
      <trkpt lat="45.30567" lon="4.28082">
        <ele>828.31390380859</ele>
        <time>2020-06-19T15:12:55.124Z</time>
      </trkpt>
      <trkpt lat="45.30582" lon="4.28144">
        <ele>828.93572998047</ele>
        <time>2020-06-19T15:12:55.201Z</time>
      </trkpt>
      <trkpt lat="45.30584" lon="4.28186">
        <ele>829.07971191406</ele>
        <time>2020-06-19T15:12:55.289Z</time>
      </trkpt>
      <trkpt lat="45.30595" lon="4.28221">
        <ele>830.31500244141</ele>
        <time>2020-06-19T15:12:55.386Z</time>
      </trkpt>
      <trkpt lat="45.30598" lon="4.28227">
        <ele>830.52093505859</ele>
        <time>2020-06-19T15:12:55.485Z</time>
      </trkpt>
      <trkpt lat="45.30602" lon="4.28234">
        <ele>831.08734130859</ele>
        <time>2020-06-19T15:12:55.586Z</time>
      </trkpt>
      <trkpt lat="45.30602" lon="4.28234">
        <ele>831.08551025391</ele>
        <time>2020-06-19T15:12:55.687Z</time>
      </trkpt>
      <trkpt lat="45.30614" lon="4.28251">
        <ele>832.81225585938</ele>
        <time>2020-06-19T15:12:55.794Z</time>
      </trkpt>
      <trkpt lat="45.30677" lon="4.2835">
        <ele>836.40899658203</ele>
        <time>2020-06-19T15:12:55.933Z</time>
      </trkpt>
      <trkpt lat="45.30705" lon="4.28407">
        <ele>834.25054931641</ele>
        <time>2020-06-19T15:12:56.089Z</time>
      </trkpt>
      <trkpt lat="45.30707" lon="4.28409">
        <ele>834.27532958984</ele>
        <time>2020-06-19T15:12:56.246Z</time>
      </trkpt>
      <trkpt lat="45.30722" lon="4.28463">
        <ele>830.82983398438</ele>
        <time>2020-06-19T15:12:56.417Z</time>
      </trkpt>
      <trkpt lat="45.30713" lon="4.28566">
        <ele>829.71447753906</ele>
        <time>2020-06-19T15:12:56.613Z</time>
      </trkpt>
      <trkpt lat="45.30713" lon="4.28566">
        <ele>829.71423339844</ele>
        <time>2020-06-19T15:12:56.809Z</time>
      </trkpt>
      <trkpt lat="45.30706" lon="4.2861">
        <ele>831.45532226562</ele>
        <time>2020-06-19T15:12:57.016Z</time>
      </trkpt>
      <trkpt lat="45.30682" lon="4.2868">
        <ele>836.56658935547</ele>
        <time>2020-06-19T15:12:57.242Z</time>
      </trkpt>
      <trkpt lat="45.30662" lon="4.28713">
        <ele>840.2197265625</ele>
        <time>2020-06-19T15:12:57.479Z</time>
      </trkpt>
      <trkpt lat="45.30656" lon="4.28777">
        <ele>848.74200439453</ele>
        <time>2020-06-19T15:12:57.732Z</time>
      </trkpt>
      <trkpt lat="45.30677" lon="4.28957">
        <ele>865.73199462891</ele>
        <time>2020-06-19T15:12:58.029Z</time>
      </trkpt>
      <trkpt lat="45.30769" lon="4.29177">
        <ele>874.05712890625</ele>
        <time>2020-06-19T15:12:58.388Z</time>
      </trkpt>
      <trkpt lat="45.30788" lon="4.293">
        <ele>879.70904541016</ele>
        <time>2020-06-19T15:12:58.778Z</time>
      </trkpt>
      <trkpt lat="45.30804" lon="4.29394">
        <ele>878.12390136719</ele>
        <time>2020-06-19T15:12:59.192Z</time>
      </trkpt>
      <trkpt lat="45.30814" lon="4.29416">
        <ele>877.01684570312</ele>
        <time>2020-06-19T15:12:59.612Z</time>
      </trkpt>
      <trkpt lat="45.3084" lon="4.29465">
        <ele>874.56140136719</ele>
        <time>2020-06-19T15:13:00.047Z</time>
      </trkpt>
      <trkpt lat="45.30847" lon="4.29475">
        <ele>873.96887207031</ele>
        <time>2020-06-19T15:13:00.485Z</time>
      </trkpt>
      <trkpt lat="45.30871" lon="4.29512">
        <ele>872.08947753906</ele>
        <time>2020-06-19T15:13:00.936Z</time>
      </trkpt>
      <trkpt lat="45.3088" lon="4.29539">
        <ele>870.89581298828</ele>
        <time>2020-06-19T15:13:01.394Z</time>
      </trkpt>
      <trkpt lat="45.30891" lon="4.2964">
        <ele>870.80737304688</ele>
        <time>2020-06-19T15:13:01.877Z</time>
      </trkpt>
      <trkpt lat="45.30924" lon="4.29682">
        <ele>872.91845703125</ele>
        <time>2020-06-19T15:13:02.375Z</time>
      </trkpt>
      <trkpt lat="45.30945" lon="4.29749">
        <ele>876.62799072266</ele>
        <time>2020-06-19T15:13:02.891Z</time>
      </trkpt>
      <trkpt lat="45.30996" lon="4.29804">
        <ele>882.15985107422</ele>
        <time>2020-06-19T15:13:03.429Z</time>
      </trkpt>
      <trkpt lat="45.31013" lon="4.2983">
        <ele>884.390625</ele>
        <time>2020-06-19T15:13:03.976Z</time>
      </trkpt>
      <trkpt lat="45.31051" lon="4.29923">
        <ele>889.10015869141</ele>
        <time>2020-06-19T15:13:04.549Z</time>
      </trkpt>
      <trkpt lat="45.31055" lon="4.29945">
        <ele>889.40911865234</ele>
        <time>2020-06-19T15:13:05.127Z</time>
      </trkpt>
      <trkpt lat="45.31056" lon="4.29939">
        <ele>889.1552734375</ele>
        <time>2020-06-19T15:13:05.707Z</time>
      </trkpt>
      <trkpt lat="45.31056" lon="4.29939">
        <ele>889.15545654297</ele>
        <time>2020-06-19T15:13:06.287Z</time>
      </trkpt>
      <trkpt lat="45.31055" lon="4.29945">
        <ele>889.40850830078</ele>
        <time>2020-06-19T15:13:06.868Z</time>
      </trkpt>
      <trkpt lat="45.30916" lon="4.30013">
        <ele>897.35638427734</ele>
        <time>2020-06-19T15:13:07.500Z</time>
      </trkpt>
      <trkpt lat="45.30857" lon="4.30053">
        <ele>896.24755859375</ele>
        <time>2020-06-19T15:13:08.155Z</time>
      </trkpt>
      <trkpt lat="45.30788" lon="4.30131">
        <ele>894.95172119141</ele>
        <time>2020-06-19T15:13:08.840Z</time>
      </trkpt>
      <trkpt lat="45.30788" lon="4.30131">
        <ele>894.95159912109</ele>
        <time>2020-06-19T15:13:09.525Z</time>
      </trkpt>
      <trkpt lat="45.30711" lon="4.30215">
        <ele>898.02630615234</ele>
        <time>2020-06-19T15:13:10.243Z</time>
      </trkpt>
      <trkpt lat="45.30666" lon="4.30257">
        <ele>898.86285400391</ele>
        <time>2020-06-19T15:13:10.980Z</time>
      </trkpt>
      <trkpt lat="45.30567" lon="4.30307">
        <ele>898.72686767578</ele>
        <time>2020-06-19T15:13:11.754Z</time>
      </trkpt>
      <trkpt lat="45.30605" lon="4.30389">
        <ele>901.86114501953</ele>
        <time>2020-06-19T15:13:12.552Z</time>
      </trkpt>
      <trkpt lat="45.30643" lon="4.30494">
        <ele>906.4208984375</ele>
        <time>2020-06-19T15:13:13.378Z</time>
      </trkpt>
      <trkpt lat="45.30588" lon="4.30589">
        <ele>913.6142578125</ele>
        <time>2020-06-19T15:13:14.234Z</time>
      </trkpt>
      <trkpt lat="45.3052" lon="4.30808">
        <ele>910.11737060547</ele>
        <time>2020-06-19T15:13:15.148Z</time>
      </trkpt>
      <trkpt lat="45.30534" lon="4.30838">
        <ele>908.40533447266</ele>
        <time>2020-06-19T15:13:16.071Z</time>
      </trkpt>
      <trkpt lat="45.30604" lon="4.30902">
        <ele>908.99200439453</ele>
        <time>2020-06-19T15:13:17.023Z</time>
      </trkpt>
      <trkpt lat="45.30678" lon="4.30986">
        <ele>909.03973388672</ele>
        <time>2020-06-19T15:13:18.007Z</time>
      </trkpt>
      <trkpt lat="45.30685" lon="4.31003">
        <ele>908.7685546875</ele>
        <time>2020-06-19T15:13:18.996Z</time>
      </trkpt>
      <trkpt lat="45.3068" lon="4.31106">
        <ele>902.27020263672</ele>
        <time>2020-06-19T15:13:20.010Z</time>
      </trkpt>
      <trkpt lat="45.30686" lon="4.31143">
        <ele>901.94940185547</ele>
        <time>2020-06-19T15:13:21.033Z</time>
      </trkpt>
      <trkpt lat="45.30674" lon="4.31266">
        <ele>904.615234375</ele>
        <time>2020-06-19T15:13:22.087Z</time>
      </trkpt>
      <trkpt lat="45.30698" lon="4.31367">
        <ele>901.87579345703</ele>
        <time>2020-06-19T15:13:23.167Z</time>
      </trkpt>
      <trkpt lat="45.30721" lon="4.31419">
        <ele>901.79370117188</ele>
        <time>2020-06-19T15:13:24.262Z</time>
      </trkpt>
      <trkpt lat="45.30734" lon="4.31585">
        <ele>906.49725341797</ele>
        <time>2020-06-19T15:13:25.397Z</time>
      </trkpt>
      <trkpt lat="45.30713" lon="4.31623">
        <ele>912.22747802734</ele>
        <time>2020-06-19T15:13:26.544Z</time>
      </trkpt>
      <trkpt lat="45.30693" lon="4.31632">
        <ele>911.21051025391</ele>
        <time>2020-06-19T15:13:27.698Z</time>
      </trkpt>
      <trkpt lat="45.30658" lon="4.31605">
        <ele>908.23608398438</ele>
        <time>2020-06-19T15:13:28.866Z</time>
      </trkpt>
      <trkpt lat="45.30574" lon="4.31617">
        <ele>903.74407958984</ele>
        <time>2020-06-19T15:13:30.063Z</time>
      </trkpt>
      <trkpt lat="45.30511" lon="4.31628">
        <ele>901.29974365234</ele>
        <time>2020-06-19T15:13:31.282Z</time>
      </trkpt>
      <trkpt lat="45.30479" lon="4.31696">
        <ele>903.78265380859</ele>
        <time>2020-06-19T15:13:32.521Z</time>
      </trkpt>
      <trkpt lat="45.30439" lon="4.31743">
        <ele>909.83227539062</ele>
        <time>2020-06-19T15:13:33.778Z</time>
      </trkpt>
      <trkpt lat="45.30413" lon="4.31788">
        <ele>917.96960449219</ele>
        <time>2020-06-19T15:13:35.049Z</time>
      </trkpt>
      <trkpt lat="45.30321" lon="4.31939">
        <ele>931.95227050781</ele>
        <time>2020-06-19T15:13:36.368Z</time>
      </trkpt>
      <trkpt lat="45.30217" lon="4.31903">
        <ele>926.18682861328</ele>
        <time>2020-06-19T15:13:37.724Z</time>
      </trkpt>
      <trkpt lat="45.30146" lon="4.31899">
        <ele>924.84967041016</ele>
        <time>2020-06-19T15:13:39.105Z</time>
      </trkpt>
      <trkpt lat="45.30134" lon="4.31922">
        <ele>927.68157958984</ele>
        <time>2020-06-19T15:13:40.493Z</time>
      </trkpt>
      <trkpt lat="45.29983" lon="4.32044">
        <ele>917.24334716797</ele>
        <time>2020-06-19T15:13:41.941Z</time>
      </trkpt>
      <trkpt lat="45.29964" lon="4.32069">
        <ele>913.64538574219</ele>
        <time>2020-06-19T15:13:43.398Z</time>
      </trkpt>
      <trkpt lat="45.29908" lon="4.32111">
        <ele>901.37072753906</ele>
        <time>2020-06-19T15:13:44.877Z</time>
      </trkpt>
      <trkpt lat="45.29908" lon="4.32111">
        <ele>901.369140625</ele>
        <time>2020-06-19T15:13:46.356Z</time>
      </trkpt>
      <trkpt lat="45.29886" lon="4.32118">
        <ele>896.99627685547</ele>
        <time>2020-06-19T15:13:47.842Z</time>
      </trkpt>
      <trkpt lat="45.29834" lon="4.32085">
        <ele>894.41070556641</ele>
        <time>2020-06-19T15:13:49.348Z</time>
      </trkpt>
      <trkpt lat="45.29813" lon="4.32141">
        <ele>889.26342773438</ele>
        <time>2020-06-19T15:13:50.870Z</time>
      </trkpt>
      <trkpt lat="45.29744" lon="4.32205">
        <ele>874.25592041016</ele>
        <time>2020-06-19T15:13:52.420Z</time>
      </trkpt>
      <trkpt lat="45.29712" lon="4.3216">
        <ele>872.72601318359</ele>
        <time>2020-06-19T15:13:53.985Z</time>
      </trkpt>
      <trkpt lat="45.29696" lon="4.32139">
        <ele>870.12579345703</ele>
        <time>2020-06-19T15:13:55.558Z</time>
      </trkpt>
      <trkpt lat="45.29629" lon="4.32211">
        <ele>861.37603759766</ele>
        <time>2020-06-19T15:13:57.160Z</time>
      </trkpt>
      <trkpt lat="45.29599" lon="4.32267">
        <ele>860.56829833984</ele>
        <time>2020-06-19T15:13:58.779Z</time>
      </trkpt>
      <trkpt lat="45.29576" lon="4.32295">
        <ele>858.96099853516</ele>
        <time>2020-06-19T15:14:00.408Z</time>
      </trkpt>
      <trkpt lat="45.29464" lon="4.32345">
        <ele>856.90740966797</ele>
        <time>2020-06-19T15:14:02.078Z</time>
      </trkpt>
      <trkpt lat="45.29356" lon="4.32406">
        <ele>854.07379150391</ele>
        <time>2020-06-19T15:14:03.788Z</time>
      </trkpt>
      <trkpt lat="45.29047" lon="4.32465">
        <ele>840.30554199219</ele>
        <time>2020-06-19T15:14:05.606Z</time>
      </trkpt>
      <trkpt lat="45.29047" lon="4.32465">
        <ele>840.30511474609</ele>
        <time>2020-06-19T15:14:07.424Z</time>
      </trkpt>
      <trkpt lat="45.29024" lon="4.3247">
        <ele>837.1630859375</ele>
        <time>2020-06-19T15:14:09.250Z</time>
      </trkpt>
      <trkpt lat="45.29016" lon="4.32471">
        <ele>836.13330078125</ele>
        <time>2020-06-19T15:14:11.078Z</time>
      </trkpt>
      <trkpt lat="45.28939" lon="4.32479">
        <ele>831.42913818359</ele>
        <time>2020-06-19T15:14:12.933Z</time>
      </trkpt>
      <trkpt lat="45.28939" lon="4.32477">
        <ele>831.35119628906</ele>
        <time>2020-06-19T15:14:14.789Z</time>
      </trkpt>
      <trkpt lat="45.28939" lon="4.32479">
        <ele>831.42901611328</ele>
        <time>2020-06-19T15:14:16.645Z</time>
      </trkpt>
      <trkpt lat="45.28818" lon="4.32491">
        <ele>836.84838867188</ele>
        <time>2020-06-19T15:14:18.543Z</time>
      </trkpt>
      <trkpt lat="45.28763" lon="4.32482">
        <ele>837.65344238281</ele>
        <time>2020-06-19T15:14:20.460Z</time>
      </trkpt>
      <trkpt lat="45.28664" lon="4.32404">
        <ele>828.07556152344</ele>
        <time>2020-06-19T15:14:22.416Z</time>
      </trkpt>
      <trkpt lat="45.28632" lon="4.32406">
        <ele>824.31683349609</ele>
        <time>2020-06-19T15:14:24.383Z</time>
      </trkpt>
      <trkpt lat="45.28607" lon="4.32417">
        <ele>823.75616455078</ele>
        <time>2020-06-19T15:14:26.359Z</time>
      </trkpt>
      <trkpt lat="45.28597" lon="4.32456">
        <ele>824.59704589844</ele>
        <time>2020-06-19T15:14:28.345Z</time>
      </trkpt>
      <trkpt lat="45.28598" lon="4.32482">
        <ele>824.01782226562</ele>
        <time>2020-06-19T15:14:30.337Z</time>
      </trkpt>
      <trkpt lat="45.28636" lon="4.32549">
        <ele>822.90960693359</ele>
        <time>2020-06-19T15:14:32.351Z</time>
      </trkpt>
      <trkpt lat="45.28635" lon="4.32574">
        <ele>820.42523193359</ele>
        <time>2020-06-19T15:14:34.371Z</time>
      </trkpt>
      <trkpt lat="45.28602" lon="4.3263">
        <ele>814.57989501953</ele>
        <time>2020-06-19T15:14:36.408Z</time>
      </trkpt>
      <trkpt lat="45.28543" lon="4.32677">
        <ele>810.31793212891</ele>
        <time>2020-06-19T15:14:38.469Z</time>
      </trkpt>
      <trkpt lat="45.28543" lon="4.32677">
        <ele>810.31610107422</ele>
        <time>2020-06-19T15:14:40.530Z</time>
      </trkpt>
      <trkpt lat="45.28543" lon="4.32677">
        <ele>810.31793212891</ele>
        <time>2020-06-19T15:14:42.591Z</time>
      </trkpt>
      <trkpt lat="45.28527" lon="4.3269">
        <ele>808.681640625</ele>
        <time>2020-06-19T15:14:44.658Z</time>
      </trkpt>
      <trkpt lat="45.28487" lon="4.3269">
        <ele>809.15789794922</ele>
        <time>2020-06-19T15:14:46.739Z</time>
      </trkpt>
      <trkpt lat="45.28379" lon="4.3265">
        <ele>805.34936523438</ele>
        <time>2020-06-19T15:14:48.859Z</time>
      </trkpt>
      <trkpt lat="45.28304" lon="4.32675">
        <ele>798.04083251953</ele>
        <time>2020-06-19T15:14:51.005Z</time>
      </trkpt>
      <trkpt lat="45.28251" lon="4.32671">
        <ele>796.07153320312</ele>
        <time>2020-06-19T15:14:53.169Z</time>
      </trkpt>
      <trkpt lat="45.28174" lon="4.3263">
        <ele>792.09478759766</ele>
        <time>2020-06-19T15:14:55.362Z</time>
      </trkpt>
      <trkpt lat="45.28112" lon="4.32559">
        <ele>787.373046875</ele>
        <time>2020-06-19T15:14:57.582Z</time>
      </trkpt>
      <trkpt lat="45.28024" lon="4.32547">
        <ele>776.71374511719</ele>
        <time>2020-06-19T15:14:59.833Z</time>
      </trkpt>
      <trkpt lat="45.27981" lon="4.32551">
        <ele>774.67645263672</ele>
        <time>2020-06-19T15:15:02.099Z</time>
      </trkpt>
      <trkpt lat="45.27955" lon="4.32571">
        <ele>774.86480712891</ele>
        <time>2020-06-19T15:15:04.375Z</time>
      </trkpt>
      <trkpt lat="45.27944" lon="4.3264">
        <ele>777.43200683594</ele>
        <time>2020-06-19T15:15:06.668Z</time>
      </trkpt>
      <trkpt lat="45.27921" lon="4.32589">
        <ele>777.564453125</ele>
        <time>2020-06-19T15:15:08.976Z</time>
      </trkpt>
      <trkpt lat="45.27908" lon="4.32551">
        <ele>776.89868164062</ele>
        <time>2020-06-19T15:15:11.294Z</time>
      </trkpt>
      <trkpt lat="45.27905" lon="4.32518">
        <ele>776.50512695312</ele>
        <time>2020-06-19T15:15:13.620Z</time>
      </trkpt>
      <trkpt lat="45.27911" lon="4.32444">
        <ele>774.45697021484</ele>
        <time>2020-06-19T15:15:15.965Z</time>
      </trkpt>
      <trkpt lat="45.27904" lon="4.32378">
        <ele>774.26251220703</ele>
        <time>2020-06-19T15:15:18.326Z</time>
      </trkpt>
      <trkpt lat="45.27909" lon="4.32335">
        <ele>774.99884033203</ele>
        <time>2020-06-19T15:15:20.698Z</time>
      </trkpt>
      <trkpt lat="45.27896" lon="4.32288">
        <ele>776.11505126953</ele>
        <time>2020-06-19T15:15:23.082Z</time>
      </trkpt>
      <trkpt lat="45.27884" lon="4.32238">
        <ele>776.21801757812</ele>
        <time>2020-06-19T15:15:25.479Z</time>
      </trkpt>
      <trkpt lat="45.27862" lon="4.32187">
        <ele>779.66625976562</ele>
        <time>2020-06-19T15:15:27.890Z</time>
      </trkpt>
      <trkpt lat="45.27838" lon="4.32158">
        <ele>784.48052978516</ele>
        <time>2020-06-19T15:15:30.312Z</time>
      </trkpt>
      <trkpt lat="45.27756" lon="4.32089">
        <ele>798.58245849609</ele>
        <time>2020-06-19T15:15:32.767Z</time>
      </trkpt>
      <trkpt lat="45.27733" lon="4.32052">
        <ele>801.388671875</ele>
        <time>2020-06-19T15:15:35.234Z</time>
      </trkpt>
      <trkpt lat="45.27718" lon="4.31922">
        <ele>801.00317382812</ele>
        <time>2020-06-19T15:15:37.733Z</time>
      </trkpt>
      <trkpt lat="45.27692" lon="4.31943">
        <ele>807.19769287109</ele>
        <time>2020-06-19T15:15:40.242Z</time>
      </trkpt>
      <trkpt lat="45.27673" lon="4.3196">
        <ele>811.81921386719</ele>
        <time>2020-06-19T15:15:42.759Z</time>
      </trkpt>
      <trkpt lat="45.27634" lon="4.3196">
        <ele>820.67041015625</ele>
        <time>2020-06-19T15:15:45.290Z</time>
      </trkpt>
      <trkpt lat="45.27562" lon="4.31998">
        <ele>836.26995849609</ele>
        <time>2020-06-19T15:15:47.847Z</time>
      </trkpt>
      <trkpt lat="45.27482" lon="4.32016">
        <ele>847.36401367188</ele>
        <time>2020-06-19T15:15:50.432Z</time>
      </trkpt>
      <trkpt lat="45.27433" lon="4.32044">
        <ele>850.58410644531</ele>
        <time>2020-06-19T15:15:53.036Z</time>
      </trkpt>
      <trkpt lat="45.27316" lon="4.3219">
        <ele>863.81555175781</ele>
        <time>2020-06-19T15:15:55.693Z</time>
      </trkpt>
      <trkpt lat="45.27316" lon="4.3219">
        <ele>863.81610107422</ele>
        <time>2020-06-19T15:15:58.350Z</time>
      </trkpt>
      <trkpt lat="45.27314" lon="4.32193">
        <ele>863.96740722656</ele>
        <time>2020-06-19T15:16:01.008Z</time>
      </trkpt>
      <trkpt lat="45.2728" lon="4.32219">
        <ele>866.86694335938</ele>
        <time>2020-06-19T15:16:03.679Z</time>
      </trkpt>
      <trkpt lat="45.27232" lon="4.32239">
        <ele>871.13494873047</ele>
        <time>2020-06-19T15:16:06.368Z</time>
      </trkpt>
      <trkpt lat="45.27197" lon="4.32278">
        <ele>874.31060791016</ele>
        <time>2020-06-19T15:16:09.072Z</time>
      </trkpt>
      <trkpt lat="45.27142" lon="4.32347">
        <ele>882.04187011719</ele>
        <time>2020-06-19T15:16:11.802Z</time>
      </trkpt>
      <trkpt lat="45.27109" lon="4.32366">
        <ele>885.05480957031</ele>
        <time>2020-06-19T15:16:14.544Z</time>
      </trkpt>
      <trkpt lat="45.27028" lon="4.324">
        <ele>889.95770263672</ele>
        <time>2020-06-19T15:16:17.315Z</time>
      </trkpt>
      <trkpt lat="45.27015" lon="4.32411">
        <ele>890.62719726562</ele>
        <time>2020-06-19T15:16:20.091Z</time>
      </trkpt>
      <trkpt lat="45.26941" lon="4.32537">
        <ele>896.53247070312</ele>
        <time>2020-06-19T15:16:22.907Z</time>
      </trkpt>
      <trkpt lat="45.26919" lon="4.32564">
        <ele>896.37799072266</ele>
        <time>2020-06-19T15:16:25.733Z</time>
      </trkpt>
      <trkpt lat="45.26894" lon="4.32605">
        <ele>896.51904296875</ele>
        <time>2020-06-19T15:16:28.572Z</time>
      </trkpt>
      <trkpt lat="45.26879" lon="4.32667">
        <ele>898.9755859375</ele>
        <time>2020-06-19T15:16:31.427Z</time>
      </trkpt>
      <trkpt lat="45.26841" lon="4.32697">
        <ele>902.28851318359</ele>
        <time>2020-06-19T15:16:34.297Z</time>
      </trkpt>
      <trkpt lat="45.26841" lon="4.32697">
        <ele>902.2890625</ele>
        <time>2020-06-19T15:16:37.167Z</time>
      </trkpt>
      <trkpt lat="45.26725" lon="4.32811">
        <ele>910.25842285156</ele>
        <time>2020-06-19T15:16:40.086Z</time>
      </trkpt>
      <trkpt lat="45.26741" lon="4.32755">
        <ele>909.00183105469</ele>
        <time>2020-06-19T15:16:43.020Z</time>
      </trkpt>
      <trkpt lat="45.26657" lon="4.32816">
        <ele>911.85913085938</ele>
        <time>2020-06-19T15:16:45.986Z</time>
      </trkpt>
      <trkpt lat="45.26633" lon="4.32816">
        <ele>911.85913085938</ele>
        <time>2020-06-19T15:16:48.960Z</time>
      </trkpt>
      <trkpt lat="45.26572" lon="4.32786">
        <ele>911.13830566406</ele>
        <time>2020-06-19T15:16:51.957Z</time>
      </trkpt>
      <trkpt lat="45.26542" lon="4.32784">
        <ele>911.189453125</ele>
        <time>2020-06-19T15:16:54.964Z</time>
      </trkpt>
      <trkpt lat="45.26523" lon="4.32797">
        <ele>912.03930664062</ele>
        <time>2020-06-19T15:16:57.979Z</time>
      </trkpt>
      <trkpt lat="45.26502" lon="4.32839">
        <ele>913.05010986328</ele>
        <time>2020-06-19T15:17:01.006Z</time>
      </trkpt>
      <trkpt lat="45.26491" lon="4.32877">
        <ele>913.82305908203</ele>
        <time>2020-06-19T15:17:04.043Z</time>
      </trkpt>
      <trkpt lat="45.26477" lon="4.32884">
        <ele>914.16607666016</ele>
        <time>2020-06-19T15:17:07.085Z</time>
      </trkpt>
      <trkpt lat="45.26466" lon="4.32913">
        <ele>914.03735351562</ele>
        <time>2020-06-19T15:17:10.135Z</time>
      </trkpt>
      <trkpt lat="45.26467" lon="4.32919">
        <ele>914.05017089844</ele>
        <time>2020-06-19T15:17:13.187Z</time>
      </trkpt>
      <trkpt lat="45.26479" lon="4.32946">
        <ele>914.19171142578</ele>
        <time>2020-06-19T15:17:16.246Z</time>
      </trkpt>
      <trkpt lat="45.26497" lon="4.3295">
        <ele>914.44921875</ele>
        <time>2020-06-19T15:17:19.312Z</time>
      </trkpt>
      <trkpt lat="45.26522" lon="4.32971">
        <ele>914.98986816406</ele>
        <time>2020-06-19T15:17:22.388Z</time>
      </trkpt>
      <trkpt lat="45.2657" lon="4.33078">
        <ele>916</ele>
        <time>2020-06-19T15:17:25.495Z</time>
      </trkpt>
      <trkpt lat="45.26622" lon="4.33238">
        <ele>918.80755615234</ele>
        <time>2020-06-19T15:17:28.644Z</time>
      </trkpt>
      <trkpt lat="45.26615" lon="4.33314">
        <ele>920.03375244141</ele>
        <time>2020-06-19T15:17:31.812Z</time>
      </trkpt>
      <trkpt lat="45.26595" lon="4.33367">
        <ele>921.19708251953</ele>
        <time>2020-06-19T15:17:34.995Z</time>
      </trkpt>
      <trkpt lat="45.26583" lon="4.33432">
        <ele>921.69927978516</ele>
        <time>2020-06-19T15:17:38.194Z</time>
      </trkpt>
      <trkpt lat="45.26574" lon="4.33468">
        <ele>921.18865966797</ele>
        <time>2020-06-19T15:17:41.402Z</time>
      </trkpt>
      <trkpt lat="45.26574" lon="4.33468">
        <ele>921.1884765625</ele>
        <time>2020-06-19T15:17:44.610Z</time>
      </trkpt>
      <trkpt lat="45.26563" lon="4.33492">
        <ele>922.0302734375</ele>
        <time>2020-06-19T15:17:47.826Z</time>
      </trkpt>
      <trkpt lat="45.26561" lon="4.33521">
        <ele>923.11157226562</ele>
        <time>2020-06-19T15:17:51.049Z</time>
      </trkpt>
      <trkpt lat="45.26508" lon="4.33561">
        <ele>923.44165039062</ele>
        <time>2020-06-19T15:17:54.293Z</time>
      </trkpt>
      <trkpt lat="45.26501" lon="4.33585">
        <ele>923.93878173828</ele>
        <time>2020-06-19T15:17:57.543Z</time>
      </trkpt>
      <trkpt lat="45.26462" lon="4.33647">
        <ele>926.978515625</ele>
        <time>2020-06-19T15:18:00.813Z</time>
      </trkpt>
      <trkpt lat="45.26443" lon="4.33689">
        <ele>929.32366943359</ele>
        <time>2020-06-19T15:18:04.095Z</time>
      </trkpt>
      <trkpt lat="45.26374" lon="4.33891">
        <ele>938.76300048828</ele>
        <time>2020-06-19T15:18:07.432Z</time>
      </trkpt>
      <trkpt lat="45.26369" lon="4.33984">
        <ele>939.87939453125</ele>
        <time>2020-06-19T15:18:10.792Z</time>
      </trkpt>
      <trkpt lat="45.26348" lon="4.3414">
        <ele>949.29339599609</ele>
        <time>2020-06-19T15:18:14.190Z</time>
      </trkpt>
      <trkpt lat="45.26311" lon="4.34212">
        <ele>952.16265869141</ele>
        <time>2020-06-19T15:18:17.610Z</time>
      </trkpt>
      <trkpt lat="45.26311" lon="4.34212">
        <ele>952.16247558594</ele>
        <time>2020-06-19T15:18:21.030Z</time>
      </trkpt>
      <trkpt lat="45.26301" lon="4.34339">
        <ele>955.63195800781</ele>
        <time>2020-06-19T15:18:24.481Z</time>
      </trkpt>
      <trkpt lat="45.26304" lon="4.34339">
        <ele>955.61108398438</ele>
        <time>2020-06-19T15:18:27.933Z</time>
      </trkpt>
      <trkpt lat="45.26301" lon="4.34339">
        <ele>955.63165283203</ele>
        <time>2020-06-19T15:18:31.385Z</time>
      </trkpt>
      <trkpt lat="45.263" lon="4.34362">
        <ele>955.93676757812</ele>
        <time>2020-06-19T15:18:34.843Z</time>
      </trkpt>
      <trkpt lat="45.26291" lon="4.34397">
        <ele>958.29406738281</ele>
        <time>2020-06-19T15:18:38.310Z</time>
      </trkpt>
      <trkpt lat="45.26217" lon="4.34521">
        <ele>973.86004638672</ele>
        <time>2020-06-19T15:18:41.817Z</time>
      </trkpt>
      <trkpt lat="45.26197" lon="4.34567">
        <ele>974.65631103516</ele>
        <time>2020-06-19T15:18:45.337Z</time>
      </trkpt>
      <trkpt lat="45.2631" lon="4.3456">
        <ele>964.53546142578</ele>
        <time>2020-06-19T15:18:48.896Z</time>
      </trkpt>
      <trkpt lat="45.26353" lon="4.3458">
        <ele>963.03302001953</ele>
        <time>2020-06-19T15:18:52.471Z</time>
      </trkpt>
      <trkpt lat="45.26452" lon="4.34596">
        <ele>961.56994628906</ele>
        <time>2020-06-19T15:18:56.080Z</time>
      </trkpt>
      <trkpt lat="45.26503" lon="4.34577">
        <ele>959.64312744141</ele>
        <time>2020-06-19T15:18:59.708Z</time>
      </trkpt>
      <trkpt lat="45.26464" lon="4.34692">
        <ele>960.16180419922</ele>
        <time>2020-06-19T15:19:03.367Z</time>
      </trkpt>
      <trkpt lat="45.26464" lon="4.34692">
        <ele>960.16198730469</ele>
        <time>2020-06-19T15:19:07.026Z</time>
      </trkpt>
      <trkpt lat="45.26425" lon="4.34774">
        <ele>955.06695556641</ele>
        <time>2020-06-19T15:19:10.709Z</time>
      </trkpt>
      <trkpt lat="45.26424" lon="4.34802">
        <ele>956.46527099609</ele>
        <time>2020-06-19T15:19:14.399Z</time>
      </trkpt>
      <trkpt lat="45.26449" lon="4.3489">
        <ele>962.67944335938</ele>
        <time>2020-06-19T15:19:18.112Z</time>
      </trkpt>
      <trkpt lat="45.2647" lon="4.35007">
        <ele>977.27728271484</ele>
        <time>2020-06-19T15:19:21.854Z</time>
      </trkpt>
      <trkpt lat="45.26486" lon="4.35125">
        <ele>983.02337646484</ele>
        <time>2020-06-19T15:19:25.625Z</time>
      </trkpt>
      <trkpt lat="45.26484" lon="4.3517">
        <ele>985.05383300781</ele>
        <time>2020-06-19T15:19:29.407Z</time>
      </trkpt>
      <trkpt lat="45.26483" lon="4.352">
        <ele>986.56158447266</ele>
        <time>2020-06-19T15:19:33.197Z</time>
      </trkpt>
      <trkpt lat="45.26483" lon="4.352">
        <ele>986.56298828125</ele>
        <time>2020-06-19T15:19:36.987Z</time>
      </trkpt>
      <trkpt lat="45.26484" lon="4.3517">
        <ele>985.05383300781</ele>
        <time>2020-06-19T15:19:40.784Z</time>
      </trkpt>
      <trkpt lat="45.26428" lon="4.35229">
        <ele>988.27404785156</ele>
        <time>2020-06-19T15:19:44.605Z</time>
      </trkpt>
      <trkpt lat="45.26407" lon="4.35242">
        <ele>989.09271240234</ele>
        <time>2020-06-19T15:19:48.434Z</time>
      </trkpt>
      <trkpt lat="45.26391" lon="4.35269">
        <ele>990.89483642578</ele>
        <time>2020-06-19T15:19:52.272Z</time>
      </trkpt>
      <trkpt lat="45.26348" lon="4.35309">
        <ele>991.62127685547</ele>
        <time>2020-06-19T15:19:56.127Z</time>
      </trkpt>
      <trkpt lat="45.26275" lon="4.35312">
        <ele>993.98754882812</ele>
        <time>2020-06-19T15:20:00.008Z</time>
      </trkpt>
      <trkpt lat="45.26108" lon="4.35285">
        <ele>997.44134521484</ele>
        <time>2020-06-19T15:20:03.947Z</time>
      </trkpt>
      <trkpt lat="45.26074" lon="4.35268">
        <ele>996.29180908203</ele>
        <time>2020-06-19T15:20:07.898Z</time>
      </trkpt>
      <trkpt lat="45.25987" lon="4.35258">
        <ele>993.32250976562</ele>
        <time>2020-06-19T15:20:11.879Z</time>
      </trkpt>
      <trkpt lat="45.25963" lon="4.35268">
        <ele>992.58880615234</ele>
        <time>2020-06-19T15:20:15.869Z</time>
      </trkpt>
      <trkpt lat="45.25938" lon="4.353">
        <ele>993.46667480469</ele>
        <time>2020-06-19T15:20:19.870Z</time>
      </trkpt>
      <trkpt lat="45.25906" lon="4.35333">
        <ele>992.01843261719</ele>
        <time>2020-06-19T15:20:23.885Z</time>
      </trkpt>
      <trkpt lat="45.25917" lon="4.35241">
        <ele>988.615234375</ele>
        <time>2020-06-19T15:20:27.923Z</time>
      </trkpt>
      <trkpt lat="45.25912" lon="4.35192">
        <ele>984.32427978516</ele>
        <time>2020-06-19T15:20:31.973Z</time>
      </trkpt>
      <trkpt lat="45.25869" lon="4.3508">
        <ele>983.40954589844</ele>
        <time>2020-06-19T15:20:36.054Z</time>
      </trkpt>
      <trkpt lat="45.25848" lon="4.35142">
        <ele>983.33703613281</ele>
        <time>2020-06-19T15:20:40.152Z</time>
      </trkpt>
      <trkpt lat="45.2574" lon="4.35356">
        <ele>983.29046630859</ele>
        <time>2020-06-19T15:20:44.314Z</time>
      </trkpt>
      <trkpt lat="45.25726" lon="4.35424">
        <ele>982.931640625</ele>
        <time>2020-06-19T15:20:48.493Z</time>
      </trkpt>
      <trkpt lat="45.25672" lon="4.35537">
        <ele>983.76153564453</ele>
        <time>2020-06-19T15:20:52.705Z</time>
      </trkpt>
      <trkpt lat="45.25647" lon="4.35558">
        <ele>985.21557617188</ele>
        <time>2020-06-19T15:20:56.927Z</time>
      </trkpt>
      <trkpt lat="45.25589" lon="4.35559">
        <ele>983.08190917969</ele>
        <time>2020-06-19T15:21:01.169Z</time>
      </trkpt>
      <trkpt lat="45.25579" lon="4.35576">
        <ele>981.69226074219</ele>
        <time>2020-06-19T15:21:05.417Z</time>
      </trkpt>
      <trkpt lat="45.25581" lon="4.35657">
        <ele>976.91485595703</ele>
        <time>2020-06-19T15:21:09.685Z</time>
      </trkpt>
      <trkpt lat="45.25551" lon="4.35705">
        <ele>968.79193115234</ele>
        <time>2020-06-19T15:21:13.968Z</time>
      </trkpt>
      <trkpt lat="45.25365" lon="4.35769">
        <ele>948.9794921875</ele>
        <time>2020-06-19T15:21:18.317Z</time>
      </trkpt>
      <trkpt lat="45.25339" lon="4.35786">
        <ele>943.83050537109</ele>
        <time>2020-06-19T15:21:22.676Z</time>
      </trkpt>
      <trkpt lat="45.253" lon="4.35836">
        <ele>933.88012695312</ele>
        <time>2020-06-19T15:21:27.053Z</time>
      </trkpt>
      <trkpt lat="45.25216" lon="4.35897">
        <ele>922.77703857422</ele>
        <time>2020-06-19T15:21:31.463Z</time>
      </trkpt>
      <trkpt lat="45.25166" lon="4.35927">
        <ele>918.05169677734</ele>
        <time>2020-06-19T15:21:35.891Z</time>
      </trkpt>
      <trkpt lat="45.25124" lon="4.35951">
        <ele>914.78186035156</ele>
        <time>2020-06-19T15:21:40.335Z</time>
      </trkpt>
      <trkpt lat="45.24871" lon="4.35764">
        <ele>911.32043457031</ele>
        <time>2020-06-19T15:21:44.878Z</time>
      </trkpt>
      <trkpt lat="45.24802" lon="4.35847">
        <ele>907.3828125</ele>
        <time>2020-06-19T15:21:49.452Z</time>
      </trkpt>
      <trkpt lat="45.24741" lon="4.35903">
        <ele>911.142578125</ele>
        <time>2020-06-19T15:21:54.051Z</time>
      </trkpt>
      <trkpt lat="45.24694" lon="4.35929">
        <ele>915.26971435547</ele>
        <time>2020-06-19T15:21:58.667Z</time>
      </trkpt>
      <trkpt lat="45.24666" lon="4.35967">
        <ele>918.29064941406</ele>
        <time>2020-06-19T15:22:03.297Z</time>
      </trkpt>
      <trkpt lat="45.24679" lon="4.36064">
        <ele>924.77526855469</ele>
        <time>2020-06-19T15:22:07.951Z</time>
      </trkpt>
      <trkpt lat="45.24673" lon="4.36093">
        <ele>926.39739990234</ele>
        <time>2020-06-19T15:22:12.612Z</time>
      </trkpt>
      <trkpt lat="45.24648" lon="4.36133">
        <ele>929.41070556641</ele>
        <time>2020-06-19T15:22:17.286Z</time>
      </trkpt>
      <trkpt lat="45.24637" lon="4.36226">
        <ele>930.46337890625</ele>
        <time>2020-06-19T15:22:21.983Z</time>
      </trkpt>
      <trkpt lat="45.2461" lon="4.36315">
        <ele>933.16247558594</ele>
        <time>2020-06-19T15:22:26.704Z</time>
      </trkpt>
      <trkpt lat="45.24586" lon="4.36338">
        <ele>933.67736816406</ele>
        <time>2020-06-19T15:22:31.435Z</time>
      </trkpt>
      <trkpt lat="45.24548" lon="4.36378">
        <ele>934.51971435547</ele>
        <time>2020-06-19T15:22:36.182Z</time>
      </trkpt>
      <trkpt lat="45.245" lon="4.36395">
        <ele>936.20642089844</ele>
        <time>2020-06-19T15:22:40.946Z</time>
      </trkpt>
      <trkpt lat="45.24451" lon="4.36435">
        <ele>938.54510498047</ele>
        <time>2020-06-19T15:22:45.730Z</time>
      </trkpt>
      <trkpt lat="45.24414" lon="4.36479">
        <ele>942.26782226562</ele>
        <time>2020-06-19T15:22:50.530Z</time>
      </trkpt>
      <trkpt lat="45.24304" lon="4.36552">
        <ele>953.15148925781</ele>
        <time>2020-06-19T15:22:55.372Z</time>
      </trkpt>
      <trkpt lat="45.24255" lon="4.36567">
        <ele>953.29504394531</ele>
        <time>2020-06-19T15:23:00.231Z</time>
      </trkpt>
      <trkpt lat="45.24155" lon="4.3658">
        <ele>946.20520019531</ele>
        <time>2020-06-19T15:23:05.125Z</time>
      </trkpt>
      <trkpt lat="45.24093" lon="4.36627">
        <ele>943.22784423828</ele>
        <time>2020-06-19T15:23:10.043Z</time>
      </trkpt>
      <trkpt lat="45.24064" lon="4.36714">
        <ele>940.88397216797</ele>
        <time>2020-06-19T15:23:14.985Z</time>
      </trkpt>
      <trkpt lat="45.24036" lon="4.36752">
        <ele>942.5830078125</ele>
        <time>2020-06-19T15:23:19.940Z</time>
      </trkpt>
      <trkpt lat="45.24012" lon="4.36804">
        <ele>948.39855957031</ele>
        <time>2020-06-19T15:23:24.910Z</time>
      </trkpt>
      <trkpt lat="45.24012" lon="4.36804">
        <ele>948.39837646484</ele>
        <time>2020-06-19T15:23:29.880Z</time>
      </trkpt>
      <trkpt lat="45.23991" lon="4.36847">
        <ele>951.54919433594</ele>
        <time>2020-06-19T15:23:34.863Z</time>
      </trkpt>
      <trkpt lat="45.2394" lon="4.36844">
        <ele>949.13739013672</ele>
        <time>2020-06-19T15:23:39.863Z</time>
      </trkpt>
      <trkpt lat="45.23882" lon="4.36825">
        <ele>945.19842529297</ele>
        <time>2020-06-19T15:23:44.884Z</time>
      </trkpt>
      <trkpt lat="45.23838" lon="4.36786">
        <ele>947.25671386719</ele>
        <time>2020-06-19T15:23:49.923Z</time>
      </trkpt>
      <trkpt lat="45.23753" lon="4.36744">
        <ele>948.06536865234</ele>
        <time>2020-06-19T15:23:54.993Z</time>
      </trkpt>
      <trkpt lat="45.23654" lon="4.36666">
        <ele>950.87536621094</ele>
        <time>2020-06-19T15:24:00.102Z</time>
      </trkpt>
      <trkpt lat="45.23603" lon="4.36647">
        <ele>955.21337890625</ele>
        <time>2020-06-19T15:24:05.229Z</time>
      </trkpt>
      <trkpt lat="45.23477" lon="4.36665">
        <ele>968.63470458984</ele>
        <time>2020-06-19T15:24:10.400Z</time>
      </trkpt>
      <trkpt lat="45.23432" lon="4.36685">
        <ele>972.98254394531</ele>
        <time>2020-06-19T15:24:15.587Z</time>
      </trkpt>
      <trkpt lat="45.23395" lon="4.36699">
        <ele>975.12353515625</ele>
        <time>2020-06-19T15:24:20.787Z</time>
      </trkpt>
      <trkpt lat="45.23317" lon="4.36754">
        <ele>978.31201171875</ele>
        <time>2020-06-19T15:24:26.018Z</time>
      </trkpt>
      <trkpt lat="45.23207" lon="4.368">
        <ele>974.24603271484</ele>
        <time>2020-06-19T15:24:31.288Z</time>
      </trkpt>
      <trkpt lat="45.23188" lon="4.36767">
        <ele>970.86932373047</ele>
        <time>2020-06-19T15:24:36.569Z</time>
      </trkpt>
      <trkpt lat="45.23152" lon="4.36555">
        <ele>964.43566894531</ele>
        <time>2020-06-19T15:24:41.903Z</time>
      </trkpt>
      <trkpt lat="45.23135" lon="4.3652">
        <ele>964.32464599609</ele>
        <time>2020-06-19T15:24:47.247Z</time>
      </trkpt>
      <trkpt lat="45.2311" lon="4.36492">
        <ele>962.21173095703</ele>
        <time>2020-06-19T15:24:52.602Z</time>
      </trkpt>
      <trkpt lat="45.23047" lon="4.36509">
        <ele>957.10198974609</ele>
        <time>2020-06-19T15:24:57.979Z</time>
      </trkpt>
      <trkpt lat="45.23019" lon="4.36479">
        <ele>956.67803955078</ele>
        <time>2020-06-19T15:25:03.368Z</time>
      </trkpt>
      <trkpt lat="45.22962" lon="4.36463">
        <ele>955.45501708984</ele>
        <time>2020-06-19T15:25:08.777Z</time>
      </trkpt>
      <trkpt lat="45.22949" lon="4.36438">
        <ele>957.06268310547</ele>
        <time>2020-06-19T15:25:14.194Z</time>
      </trkpt>
      <trkpt lat="45.22936" lon="4.3643">
        <ele>958.041015625</ele>
        <time>2020-06-19T15:25:19.616Z</time>
      </trkpt>
      <trkpt lat="45.22924" lon="4.36382">
        <ele>961.11401367188</ele>
        <time>2020-06-19T15:25:25.050Z</time>
      </trkpt>
      <trkpt lat="45.22915" lon="4.36371">
        <ele>962.1953125</ele>
        <time>2020-06-19T15:25:30.488Z</time>
      </trkpt>
      <trkpt lat="45.22759" lon="4.36108">
        <ele>968.53363037109</ele>
        <time>2020-06-19T15:25:36.010Z</time>
      </trkpt>
      <trkpt lat="45.22753" lon="4.36038">
        <ele>965.11389160156</ele>
        <time>2020-06-19T15:25:41.549Z</time>
      </trkpt>
      <trkpt lat="45.22713" lon="4.35915">
        <ele>946.06909179688</ele>
        <time>2020-06-19T15:25:47.121Z</time>
      </trkpt>
      <trkpt lat="45.22675" lon="4.35853">
        <ele>938.67346191406</ele>
        <time>2020-06-19T15:25:52.713Z</time>
      </trkpt>
      <trkpt lat="45.22648" lon="4.35813">
        <ele>936.25415039062</ele>
        <time>2020-06-19T15:25:58.319Z</time>
      </trkpt>
      <trkpt lat="45.22639" lon="4.35776">
        <ele>931.98168945312</ele>
        <time>2020-06-19T15:26:03.934Z</time>
      </trkpt>
      <trkpt lat="45.22611" lon="4.35724">
        <ele>930.64617919922</ele>
        <time>2020-06-19T15:26:09.565Z</time>
      </trkpt>
      <trkpt lat="45.22526" lon="4.35651">
        <ele>933.95562744141</ele>
        <time>2020-06-19T15:26:15.230Z</time>
      </trkpt>
      <trkpt lat="45.22471" lon="4.35614">
        <ele>930.40283203125</ele>
        <time>2020-06-19T15:26:20.916Z</time>
      </trkpt>
      <trkpt lat="45.22407" lon="4.35549">
        <ele>923.40765380859</ele>
        <time>2020-06-19T15:26:26.630Z</time>
      </trkpt>
      <trkpt lat="45.22394" lon="4.35527">
        <ele>921.69604492188</ele>
        <time>2020-06-19T15:26:32.350Z</time>
      </trkpt>
      <trkpt lat="45.22394" lon="4.35527">
        <ele>921.69702148438</ele>
        <time>2020-06-19T15:26:38.070Z</time>
      </trkpt>
      <trkpt lat="45.22341" lon="4.35452">
        <ele>907.47119140625</ele>
        <time>2020-06-19T15:26:43.817Z</time>
      </trkpt>
      <trkpt lat="45.22338" lon="4.35455">
        <ele>907.04327392578</ele>
        <time>2020-06-19T15:26:49.565Z</time>
      </trkpt>
      <trkpt lat="45.22296" lon="4.35383">
        <ele>890.08874511719</ele>
        <time>2020-06-19T15:26:55.336Z</time>
      </trkpt>
      <trkpt lat="45.22276" lon="4.35339">
        <ele>884.66918945312</ele>
        <time>2020-06-19T15:27:01.120Z</time>
      </trkpt>
      <trkpt lat="45.22265" lon="4.35309">
        <ele>882.12286376953</ele>
        <time>2020-06-19T15:27:06.912Z</time>
      </trkpt>
      <trkpt lat="45.22254" lon="4.3526">
        <ele>878.02697753906</ele>
        <time>2020-06-19T15:27:12.716Z</time>
      </trkpt>
      <trkpt lat="45.22246" lon="4.35246">
        <ele>876.13562011719</ele>
        <time>2020-06-19T15:27:18.525Z</time>
      </trkpt>
      <trkpt lat="45.22242" lon="4.35235">
        <ele>874.99005126953</ele>
        <time>2020-06-19T15:27:24.337Z</time>
      </trkpt>
      <trkpt lat="45.22245" lon="4.35202">
        <ele>872.89117431641</ele>
        <time>2020-06-19T15:27:30.157Z</time>
      </trkpt>
      <trkpt lat="45.22251" lon="4.35188">
        <ele>871.99981689453</ele>
        <time>2020-06-19T15:27:35.981Z</time>
      </trkpt>
      <trkpt lat="45.2227" lon="4.35169">
        <ele>871.83990478516</ele>
        <time>2020-06-19T15:27:41.813Z</time>
      </trkpt>
      <trkpt lat="45.22297" lon="4.35137">
        <ele>869.45080566406</ele>
        <time>2020-06-19T15:27:47.657Z</time>
      </trkpt>
      <trkpt lat="45.22321" lon="4.35114">
        <ele>868.70349121094</ele>
        <time>2020-06-19T15:27:53.511Z</time>
      </trkpt>
      <trkpt lat="45.22341" lon="4.35098">
        <ele>867.72479248047</ele>
        <time>2020-06-19T15:27:59.373Z</time>
      </trkpt>
      <trkpt lat="45.22369" lon="4.35085">
        <ele>866.51098632812</ele>
        <time>2020-06-19T15:28:05.245Z</time>
      </trkpt>
      <trkpt lat="45.22466" lon="4.35046">
        <ele>852.12103271484</ele>
        <time>2020-06-19T15:28:11.152Z</time>
      </trkpt>
      <trkpt lat="45.22481" lon="4.35042">
        <ele>848.60632324219</ele>
        <time>2020-06-19T15:28:17.064Z</time>
      </trkpt>
      <trkpt lat="45.22501" lon="4.35042">
        <ele>844.08428955078</ele>
        <time>2020-06-19T15:28:22.983Z</time>
      </trkpt>
      <trkpt lat="45.22513" lon="4.35039">
        <ele>840.517578125</ele>
        <time>2020-06-19T15:28:28.906Z</time>
      </trkpt>
      <trkpt lat="45.22519" lon="4.35033">
        <ele>836.60778808594</ele>
        <time>2020-06-19T15:28:34.832Z</time>
      </trkpt>
      <trkpt lat="45.22519" lon="4.35025">
        <ele>833.95532226562</ele>
        <time>2020-06-19T15:28:40.760Z</time>
      </trkpt>
      <trkpt lat="45.22517" lon="4.35022">
        <ele>833.36877441406</ele>
        <time>2020-06-19T15:28:46.689Z</time>
      </trkpt>
      <trkpt lat="45.22511" lon="4.35019">
        <ele>833.70733642578</ele>
        <time>2020-06-19T15:28:52.620Z</time>
      </trkpt>
      <trkpt lat="45.22471" lon="4.35012">
        <ele>839.83117675781</ele>
        <time>2020-06-19T15:28:58.565Z</time>
      </trkpt>
      <trkpt lat="45.22448" lon="4.35008">
        <ele>841.58715820312</ele>
        <time>2020-06-19T15:29:04.518Z</time>
      </trkpt>
      <trkpt lat="45.22408" lon="4.3501">
        <ele>843.92413330078</ele>
        <time>2020-06-19T15:29:10.484Z</time>
      </trkpt>
      <trkpt lat="45.22399" lon="4.35008">
        <ele>843.76483154297</ele>
        <time>2020-06-19T15:29:16.454Z</time>
      </trkpt>
      <trkpt lat="45.22388" lon="4.35002">
        <ele>842.68536376953</ele>
        <time>2020-06-19T15:29:22.428Z</time>
      </trkpt>
      <trkpt lat="45.22372" lon="4.34988">
        <ele>838.75048828125</ele>
        <time>2020-06-19T15:29:28.408Z</time>
      </trkpt>
      <trkpt lat="45.2235" lon="4.34974">
        <ele>834.90905761719</ele>
        <time>2020-06-19T15:29:34.396Z</time>
      </trkpt>
      <trkpt lat="45.22334" lon="4.34967">
        <ele>833.27770996094</ele>
        <time>2020-06-19T15:29:40.390Z</time>
      </trkpt>
      <trkpt lat="45.2229" lon="4.34955">
        <ele>829.32653808594</ele>
        <time>2020-06-19T15:29:46.400Z</time>
      </trkpt>
      <trkpt lat="45.22272" lon="4.34956">
        <ele>827.78204345703</ele>
        <time>2020-06-19T15:29:52.416Z</time>
      </trkpt>
      <trkpt lat="45.22253" lon="4.34969">
        <ele>829.47521972656</ele>
        <time>2020-06-19T15:29:58.439Z</time>
      </trkpt>
      <trkpt lat="45.22243" lon="4.34973">
        <ele>829.48748779297</ele>
        <time>2020-06-19T15:30:04.466Z</time>
      </trkpt>
      <trkpt lat="45.22228" lon="4.34969">
        <ele>826.91455078125</ele>
        <time>2020-06-19T15:30:10.498Z</time>
      </trkpt>
      <trkpt lat="45.22219" lon="4.34964">
        <ele>824.46221923828</ele>
        <time>2020-06-19T15:30:16.534Z</time>
      </trkpt>
      <trkpt lat="45.22208" lon="4.34951">
        <ele>820.79040527344</ele>
        <time>2020-06-19T15:30:22.575Z</time>
      </trkpt>
      <trkpt lat="45.22181" lon="4.34901">
        <ele>808.03918457031</ele>
        <time>2020-06-19T15:30:28.631Z</time>
      </trkpt>
      <trkpt lat="45.22164" lon="4.34875">
        <ele>801.40972900391</ele>
        <time>2020-06-19T15:30:34.695Z</time>
      </trkpt>
      <trkpt lat="45.22158" lon="4.3487">
        <ele>800.24438476562</ele>
        <time>2020-06-19T15:30:40.762Z</time>
      </trkpt>
      <trkpt lat="45.22141" lon="4.34865">
        <ele>799.19598388672</ele>
        <time>2020-06-19T15:30:46.835Z</time>
      </trkpt>
      <trkpt lat="45.22136" lon="4.34859">
        <ele>797.10321044922</ele>
        <time>2020-06-19T15:30:52.910Z</time>
      </trkpt>
      <trkpt lat="45.22136" lon="4.34853">
        <ele>794.72900390625</ele>
        <time>2020-06-19T15:30:58.987Z</time>
      </trkpt>
      <trkpt lat="45.22141" lon="4.34845">
        <ele>791.92169189453</ele>
        <time>2020-06-19T15:31:05.066Z</time>
      </trkpt>
      <trkpt lat="45.22147" lon="4.34843">
        <ele>791.29827880859</ele>
        <time>2020-06-19T15:31:11.147Z</time>
      </trkpt>
      <trkpt lat="45.22173" lon="4.34855">
        <ele>794.97705078125</ele>
        <time>2020-06-19T15:31:17.238Z</time>
      </trkpt>
      <trkpt lat="45.22183" lon="4.34861">
        <ele>797.02349853516</ele>
        <time>2020-06-19T15:31:23.332Z</time>
      </trkpt>
      <trkpt lat="45.222" lon="4.34876">
        <ele>801.17419433594</ele>
        <time>2020-06-19T15:31:29.433Z</time>
      </trkpt>
      <trkpt lat="45.22208" lon="4.34878">
        <ele>801.56823730469</ele>
        <time>2020-06-19T15:31:35.537Z</time>
      </trkpt>
      <trkpt lat="45.22214" lon="4.34874">
        <ele>800.69403076172</ele>
        <time>2020-06-19T15:31:41.643Z</time>
      </trkpt>
      <trkpt lat="45.22222" lon="4.34852">
        <ele>794.55480957031</ele>
        <time>2020-06-19T15:31:47.755Z</time>
      </trkpt>
      <trkpt lat="45.22231" lon="4.34839">
        <ele>790.94720458984</ele>
        <time>2020-06-19T15:31:53.872Z</time>
      </trkpt>
      <trkpt lat="45.22247" lon="4.34835">
        <ele>790.13916015625</ele>
        <time>2020-06-19T15:31:59.994Z</time>
      </trkpt>
      <trkpt lat="45.22285" lon="4.34835">
        <ele>791.70526123047</ele>
        <time>2020-06-19T15:32:06.130Z</time>
      </trkpt>
      <trkpt lat="45.22313" lon="4.34833">
        <ele>792.02172851562</ele>
        <time>2020-06-19T15:32:12.275Z</time>
      </trkpt>
      <trkpt lat="45.22343" lon="4.34825">
        <ele>790.69097900391</ele>
        <time>2020-06-19T15:32:18.431Z</time>
      </trkpt>
      <trkpt lat="45.22371" lon="4.34813">
        <ele>788.32836914062</ele>
        <time>2020-06-19T15:32:24.597Z</time>
      </trkpt>
      <trkpt lat="45.22383" lon="4.34803">
        <ele>785.65228271484</ele>
        <time>2020-06-19T15:32:30.768Z</time>
      </trkpt>
      <trkpt lat="45.22396" lon="4.34796">
        <ele>783.37750244141</ele>
        <time>2020-06-19T15:32:36.943Z</time>
      </trkpt>
      <trkpt lat="45.22403" lon="4.3479">
        <ele>782.74487304688</ele>
        <time>2020-06-19T15:32:43.121Z</time>
      </trkpt>
      <trkpt lat="45.22398" lon="4.34788">
        <ele>782.39953613281</ele>
        <time>2020-06-19T15:32:49.301Z</time>
      </trkpt>
      <trkpt lat="45.22391" lon="4.34788">
        <ele>782.18634033203</ele>
        <time>2020-06-19T15:32:55.483Z</time>
      </trkpt>
      <trkpt lat="45.22376" lon="4.3479">
        <ele>783.02862548828</ele>
        <time>2020-06-19T15:33:01.671Z</time>
      </trkpt>
      <trkpt lat="45.22304" lon="4.34807">
        <ele>785.98986816406</ele>
        <time>2020-06-19T15:33:07.884Z</time>
      </trkpt>
      <trkpt lat="45.22287" lon="4.34806">
        <ele>785.04119873047</ele>
        <time>2020-06-19T15:33:14.103Z</time>
      </trkpt>
      <trkpt lat="45.22253" lon="4.34793">
        <ele>779.62194824219</ele>
        <time>2020-06-19T15:33:20.334Z</time>
      </trkpt>
      <trkpt lat="45.22119" lon="4.34718">
        <ele>770.25244140625</ele>
        <time>2020-06-19T15:33:26.614Z</time>
      </trkpt>
      <trkpt lat="45.22113" lon="4.3471">
        <ele>769.80712890625</ele>
        <time>2020-06-19T15:33:32.897Z</time>
      </trkpt>
      <trkpt lat="45.2211" lon="4.347">
        <ele>769.84814453125</ele>
        <time>2020-06-19T15:33:39.183Z</time>
      </trkpt>
      <trkpt lat="45.2211" lon="4.3469">
        <ele>771.87518310547</ele>
        <time>2020-06-19T15:33:45.471Z</time>
      </trkpt>
      <trkpt lat="45.22115" lon="4.3467">
        <ele>778.76568603516</ele>
        <time>2020-06-19T15:33:51.765Z</time>
      </trkpt>
      <trkpt lat="45.22116" lon="4.34659">
        <ele>782.96173095703</ele>
        <time>2020-06-19T15:33:58.061Z</time>
      </trkpt>
      <trkpt lat="45.22113" lon="4.34646">
        <ele>786.98156738281</ele>
        <time>2020-06-19T15:34:04.361Z</time>
      </trkpt>
      <trkpt lat="45.2211" lon="4.34642">
        <ele>788.19134521484</ele>
        <time>2020-06-19T15:34:10.662Z</time>
      </trkpt>
      <trkpt lat="45.22103" lon="4.34635">
        <ele>788.69158935547</ele>
        <time>2020-06-19T15:34:16.966Z</time>
      </trkpt>
      <trkpt lat="45.22072" lon="4.34624">
        <ele>785.99981689453</ele>
        <time>2020-06-19T15:34:23.281Z</time>
      </trkpt>
      <trkpt lat="45.22051" lon="4.34625">
        <ele>781.9365234375</ele>
        <time>2020-06-19T15:34:29.603Z</time>
      </trkpt>
      <trkpt lat="45.22045" lon="4.34623">
        <ele>781.56854248047</ele>
        <time>2020-06-19T15:34:35.927Z</time>
      </trkpt>
      <trkpt lat="45.22036" lon="4.34618">
        <ele>780.28363037109</ele>
        <time>2020-06-19T15:34:42.255Z</time>
      </trkpt>
      <trkpt lat="45.22027" lon="4.34611">
        <ele>779.32391357422</ele>
        <time>2020-06-19T15:34:48.586Z</time>
      </trkpt>
      <trkpt lat="45.22021" lon="4.34599">
        <ele>778.49505615234</ele>
        <time>2020-06-19T15:34:54.921Z</time>
      </trkpt>
      <trkpt lat="45.22002" lon="4.34551">
        <ele>778.22808837891</ele>
        <time>2020-06-19T15:35:01.269Z</time>
      </trkpt>
      <trkpt lat="45.21984" lon="4.34523">
        <ele>775.58935546875</ele>
        <time>2020-06-19T15:35:07.626Z</time>
      </trkpt>
      <trkpt lat="45.21982" lon="4.34516">
        <ele>775.14367675781</ele>
        <time>2020-06-19T15:35:13.985Z</time>
      </trkpt>
      <trkpt lat="45.2198" lon="4.34501">
        <ele>775.20501708984</ele>
        <time>2020-06-19T15:35:20.348Z</time>
      </trkpt>
      <trkpt lat="45.21981" lon="4.34494">
        <ele>775.75610351562</ele>
        <time>2020-06-19T15:35:26.713Z</time>
      </trkpt>
      <trkpt lat="45.21986" lon="4.34444">
        <ele>779.41729736328</ele>
        <time>2020-06-19T15:35:33.090Z</time>
      </trkpt>
      <trkpt lat="45.21991" lon="4.34413">
        <ele>780.7431640625</ele>
        <time>2020-06-19T15:35:39.475Z</time>
      </trkpt>
      <trkpt lat="45.21992" lon="4.34388">
        <ele>780.54193115234</ele>
        <time>2020-06-19T15:35:45.866Z</time>
      </trkpt>
      <trkpt lat="45.21984" lon="4.34331">
        <ele>775.39758300781</ele>
        <time>2020-06-19T15:35:52.271Z</time>
      </trkpt>
      <trkpt lat="45.21982" lon="4.343">
        <ele>773.39093017578</ele>
        <time>2020-06-19T15:35:58.684Z</time>
      </trkpt>
      <trkpt lat="45.21984" lon="4.34284">
        <ele>771.88818359375</ele>
        <time>2020-06-19T15:36:05.101Z</time>
      </trkpt>
      <trkpt lat="45.21996" lon="4.34228">
        <ele>773.33514404297</ele>
        <time>2020-06-19T15:36:11.532Z</time>
      </trkpt>
      <trkpt lat="45.22003" lon="4.3414">
        <ele>773.34887695312</ele>
        <time>2020-06-19T15:36:17.984Z</time>
      </trkpt>
      <trkpt lat="45.2201" lon="4.3411">
        <ele>775.44781494141</ele>
        <time>2020-06-19T15:36:24.444Z</time>
      </trkpt>
      <trkpt lat="45.22036" lon="4.34026">
        <ele>780.99462890625</ele>
        <time>2020-06-19T15:36:30.927Z</time>
      </trkpt>
      <trkpt lat="45.22059" lon="4.33947">
        <ele>786.21350097656</ele>
        <time>2020-06-19T15:36:37.430Z</time>
      </trkpt>
      <trkpt lat="45.22068" lon="4.33905">
        <ele>787.447265625</ele>
        <time>2020-06-19T15:36:43.944Z</time>
      </trkpt>
      <trkpt lat="45.22073" lon="4.33872">
        <ele>787.79272460938</ele>
        <time>2020-06-19T15:36:50.466Z</time>
      </trkpt>
      <trkpt lat="45.22078" lon="4.33831">
        <ele>786.35321044922</ele>
        <time>2020-06-19T15:36:56.998Z</time>
      </trkpt>
      <trkpt lat="45.22083" lon="4.33735">
        <ele>781.36657714844</ele>
        <time>2020-06-19T15:37:03.554Z</time>
      </trkpt>
      <trkpt lat="45.22095" lon="4.33679">
        <ele>779.81158447266</ele>
        <time>2020-06-19T15:37:10.124Z</time>
      </trkpt>
      <trkpt lat="45.22094" lon="4.33652">
        <ele>779.80804443359</ele>
        <time>2020-06-19T15:37:16.701Z</time>
      </trkpt>
      <trkpt lat="45.22091" lon="4.3364">
        <ele>779.4599609375</ele>
        <time>2020-06-19T15:37:23.281Z</time>
      </trkpt>
      <trkpt lat="45.22079" lon="4.33607">
        <ele>776.35369873047</ele>
        <time>2020-06-19T15:37:29.870Z</time>
      </trkpt>
      <trkpt lat="45.22077" lon="4.33594">
        <ele>775.90222167969</ele>
        <time>2020-06-19T15:37:36.462Z</time>
      </trkpt>
      <trkpt lat="45.22078" lon="4.33572">
        <ele>776.32745361328</ele>
        <time>2020-06-19T15:37:43.059Z</time>
      </trkpt>
      <trkpt lat="45.22085" lon="4.3351">
        <ele>780.94567871094</ele>
        <time>2020-06-19T15:37:49.672Z</time>
      </trkpt>
      <trkpt lat="45.22089" lon="4.33442">
        <ele>777.74523925781</ele>
        <time>2020-06-19T15:37:56.301Z</time>
      </trkpt>
      <trkpt lat="45.22096" lon="4.33402">
        <ele>777.20129394531</ele>
        <time>2020-06-19T15:38:02.940Z</time>
      </trkpt>
      <trkpt lat="45.22109" lon="4.33359">
        <ele>774.60150146484</ele>
        <time>2020-06-19T15:38:09.591Z</time>
      </trkpt>
      <trkpt lat="45.2211" lon="4.33332">
        <ele>772.21423339844</ele>
        <time>2020-06-19T15:38:16.248Z</time>
      </trkpt>
      <trkpt lat="45.22108" lon="4.33329">
        <ele>771.50317382812</ele>
        <time>2020-06-19T15:38:22.906Z</time>
      </trkpt>
      <trkpt lat="45.22107" lon="4.33328">
        <ele>771.052734375</ele>
        <time>2020-06-19T15:38:29.565Z</time>
      </trkpt>
      <trkpt lat="45.22079" lon="4.33325">
        <ele>764.796875</ele>
        <time>2020-06-19T15:38:36.233Z</time>
      </trkpt>
      <trkpt lat="45.22076" lon="4.33323">
        <ele>763.82873535156</ele>
        <time>2020-06-19T15:38:42.903Z</time>
      </trkpt>
      <trkpt lat="45.22071" lon="4.33313">
        <ele>761.69909667969</ele>
        <time>2020-06-19T15:38:49.576Z</time>
      </trkpt>
      <trkpt lat="45.22065" lon="4.33296">
        <ele>758.74768066406</ele>
        <time>2020-06-19T15:38:56.253Z</time>
      </trkpt>
      <trkpt lat="45.22057" lon="4.3326">
        <ele>755.74725341797</ele>
        <time>2020-06-19T15:39:02.939Z</time>
      </trkpt>
      <trkpt lat="45.22058" lon="4.33248">
        <ele>756.09643554688</ele>
        <time>2020-06-19T15:39:09.628Z</time>
      </trkpt>
      <trkpt lat="45.22061" lon="4.33238">
        <ele>756.921875</ele>
        <time>2020-06-19T15:39:16.320Z</time>
      </trkpt>
      <trkpt lat="45.22063" lon="4.33234">
        <ele>757.58142089844</ele>
        <time>2020-06-19T15:39:23.013Z</time>
      </trkpt>
      <trkpt lat="45.2207" lon="4.3323">
        <ele>758.83929443359</ele>
        <time>2020-06-19T15:39:29.709Z</time>
      </trkpt>
      <trkpt lat="45.22102" lon="4.33228">
        <ele>765.41680908203</ele>
        <time>2020-06-19T15:39:36.416Z</time>
      </trkpt>
      <trkpt lat="45.22113" lon="4.33225">
        <ele>767.72766113281</ele>
        <time>2020-06-19T15:39:43.127Z</time>
      </trkpt>
      <trkpt lat="45.22122" lon="4.33226">
        <ele>769.61486816406</ele>
        <time>2020-06-19T15:39:49.841Z</time>
      </trkpt>
      <trkpt lat="45.22129" lon="4.33223">
        <ele>771.15191650391</ele>
        <time>2020-06-19T15:39:56.557Z</time>
      </trkpt>
      <trkpt lat="45.22137" lon="4.33222">
        <ele>773.24560546875</ele>
        <time>2020-06-19T15:40:03.276Z</time>
      </trkpt>
      <trkpt lat="45.22144" lon="4.33219">
        <ele>775.31512451172</ele>
        <time>2020-06-19T15:40:09.998Z</time>
      </trkpt>
      <trkpt lat="45.22154" lon="4.33219">
        <ele>777.81665039062</ele>
        <time>2020-06-19T15:40:16.723Z</time>
      </trkpt>
      <trkpt lat="45.22167" lon="4.33214">
        <ele>781.58807373047</ele>
        <time>2020-06-19T15:40:23.453Z</time>
      </trkpt>
      <trkpt lat="45.2217" lon="4.3321">
        <ele>782.4892578125</ele>
        <time>2020-06-19T15:40:30.184Z</time>
      </trkpt>
      <trkpt lat="45.2217" lon="4.33207">
        <ele>782.57409667969</ele>
        <time>2020-06-19T15:40:36.916Z</time>
      </trkpt>
      <trkpt lat="45.22157" lon="4.33199">
        <ele>779.39794921875</ele>
        <time>2020-06-19T15:40:43.653Z</time>
      </trkpt>
      <trkpt lat="45.22155" lon="4.33196">
        <ele>779.09851074219</ele>
        <time>2020-06-19T15:40:50.391Z</time>
      </trkpt>
      <trkpt lat="45.22156" lon="4.33193">
        <ele>779.54949951172</ele>
        <time>2020-06-19T15:40:57.130Z</time>
      </trkpt>
      <trkpt lat="45.22169" lon="4.33189">
        <ele>783.07421875</ele>
        <time>2020-06-19T15:41:03.873Z</time>
      </trkpt>
      <trkpt lat="45.22185" lon="4.33182">
        <ele>787.81713867188</ele>
        <time>2020-06-19T15:41:10.622Z</time>
      </trkpt>
      <trkpt lat="45.22192" lon="4.33174">
        <ele>790.01538085938</ele>
        <time>2020-06-19T15:41:17.374Z</time>
      </trkpt>
      <trkpt lat="45.22196" lon="4.33172">
        <ele>791.23675537109</ele>
        <time>2020-06-19T15:41:24.128Z</time>
      </trkpt>
      <trkpt lat="45.22203" lon="4.33166">
        <ele>793.45562744141</ele>
        <time>2020-06-19T15:41:30.884Z</time>
      </trkpt>
      <trkpt lat="45.22208" lon="4.33156">
        <ele>795.42523193359</ele>
        <time>2020-06-19T15:41:37.643Z</time>
      </trkpt>
      <trkpt lat="45.22211" lon="4.33142">
        <ele>796.97576904297</ele>
        <time>2020-06-19T15:41:44.406Z</time>
      </trkpt>
      <trkpt lat="45.22215" lon="4.33133">
        <ele>798.62457275391</ele>
        <time>2020-06-19T15:41:51.172Z</time>
      </trkpt>
      <trkpt lat="45.22219" lon="4.33129">
        <ele>800.00744628906</ele>
        <time>2020-06-19T15:41:57.939Z</time>
      </trkpt>
      <trkpt lat="45.22224" lon="4.33127">
        <ele>801.39050292969</ele>
        <time>2020-06-19T15:42:04.708Z</time>
      </trkpt>
      <trkpt lat="45.22232" lon="4.33127">
        <ele>802.50512695312</ele>
        <time>2020-06-19T15:42:11.480Z</time>
      </trkpt>
      <trkpt lat="45.22236" lon="4.33123">
        <ele>802.62951660156</ele>
        <time>2020-06-19T15:42:18.254Z</time>
      </trkpt>
      <trkpt lat="45.22251" lon="4.33118">
        <ele>803.95831298828</ele>
        <time>2020-06-19T15:42:25.033Z</time>
      </trkpt>
      <trkpt lat="45.22261" lon="4.3311">
        <ele>805.33380126953</ele>
        <time>2020-06-19T15:42:31.816Z</time>
      </trkpt>
      <trkpt lat="45.2227" lon="4.33107">
        <ele>806.80206298828</ele>
        <time>2020-06-19T15:42:38.602Z</time>
      </trkpt>
      <trkpt lat="45.22282" lon="4.33096">
        <ele>809.55157470703</ele>
        <time>2020-06-19T15:42:45.393Z</time>
      </trkpt>
      <trkpt lat="45.22285" lon="4.33089">
        <ele>810.5634765625</ele>
        <time>2020-06-19T15:42:52.186Z</time>
      </trkpt>
      <trkpt lat="45.22282" lon="4.33075">
        <ele>811.77905273438</ele>
        <time>2020-06-19T15:42:58.983Z</time>
      </trkpt>
      <trkpt lat="45.22274" lon="4.33073">
        <ele>811.09027099609</ele>
        <time>2020-06-19T15:43:05.782Z</time>
      </trkpt>
      <trkpt lat="45.22261" lon="4.33075">
        <ele>809.54077148438</ele>
        <time>2020-06-19T15:43:12.586Z</time>
      </trkpt>
      <trkpt lat="45.22252" lon="4.33073">
        <ele>808.67462158203</ele>
        <time>2020-06-19T15:43:19.393Z</time>
      </trkpt>
      <trkpt lat="45.2225" lon="4.33071">
        <ele>808.65246582031</ele>
        <time>2020-06-19T15:43:26.201Z</time>
      </trkpt>
      <trkpt lat="45.22243" lon="4.33054">
        <ele>809.82312011719</ele>
        <time>2020-06-19T15:43:33.014Z</time>
      </trkpt>
      <trkpt lat="45.22241" lon="4.33029">
        <ele>812.16137695312</ele>
        <time>2020-06-19T15:43:39.833Z</time>
      </trkpt>
      <trkpt lat="45.22244" lon="4.33003">
        <ele>812.49444580078</ele>
        <time>2020-06-19T15:43:46.658Z</time>
      </trkpt>
      <trkpt lat="45.22253" lon="4.32978">
        <ele>814.25921630859</ele>
        <time>2020-06-19T15:43:53.490Z</time>
      </trkpt>
      <trkpt lat="45.22261" lon="4.32965">
        <ele>816.99774169922</ele>
        <time>2020-06-19T15:44:00.326Z</time>
      </trkpt>
      <trkpt lat="45.22263" lon="4.32957">
        <ele>818.03302001953</ele>
        <time>2020-06-19T15:44:07.164Z</time>
      </trkpt>
      <trkpt lat="45.2227" lon="4.32944">
        <ele>819.85333251953</ele>
        <time>2020-06-19T15:44:14.006Z</time>
      </trkpt>
      <trkpt lat="45.22274" lon="4.32938">
        <ele>820.40246582031</ele>
        <time>2020-06-19T15:44:20.850Z</time>
      </trkpt>
      <trkpt lat="45.22276" lon="4.32932">
        <ele>820.52471923828</ele>
        <time>2020-06-19T15:44:27.696Z</time>
      </trkpt>
      <trkpt lat="45.22279" lon="4.3293">
        <ele>820.99450683594</ele>
        <time>2020-06-19T15:44:34.543Z</time>
      </trkpt>
      <trkpt lat="45.22285" lon="4.32931">
        <ele>822.55505371094</ele>
        <time>2020-06-19T15:44:41.392Z</time>
      </trkpt>
      <trkpt lat="45.22292" lon="4.32965">
        <ele>822.86083984375</ele>
        <time>2020-06-19T15:44:48.250Z</time>
      </trkpt>
      <trkpt lat="45.22299" lon="4.32978">
        <ele>822.66253662109</ele>
        <time>2020-06-19T15:44:55.112Z</time>
      </trkpt>
      <trkpt lat="45.22313" lon="4.32989">
        <ele>822.74810791016</ele>
        <time>2020-06-19T15:45:01.979Z</time>
      </trkpt>
      <trkpt lat="45.22324" lon="4.32991">
        <ele>823.42755126953</ele>
        <time>2020-06-19T15:45:08.850Z</time>
      </trkpt>
      <trkpt lat="45.22358" lon="4.32981">
        <ele>828.33026123047</ele>
        <time>2020-06-19T15:45:15.733Z</time>
      </trkpt>
      <trkpt lat="45.22372" lon="4.32973">
        <ele>831.39752197266</ele>
        <time>2020-06-19T15:45:22.621Z</time>
      </trkpt>
      <trkpt lat="45.22378" lon="4.32973">
        <ele>832.23846435547</ele>
        <time>2020-06-19T15:45:29.511Z</time>
      </trkpt>
      <trkpt lat="45.22388" lon="4.32966">
        <ele>834.76831054688</ele>
        <time>2020-06-19T15:45:36.405Z</time>
      </trkpt>
      <trkpt lat="45.22394" lon="4.32964">
        <ele>836.14025878906</ele>
        <time>2020-06-19T15:45:43.301Z</time>
      </trkpt>
      <trkpt lat="45.22421" lon="4.32952">
        <ele>838.83435058594</ele>
        <time>2020-06-19T15:45:50.207Z</time>
      </trkpt>
      <trkpt lat="45.22428" lon="4.32947">
        <ele>839.62432861328</ele>
        <time>2020-06-19T15:45:57.116Z</time>
      </trkpt>
      <trkpt lat="45.22461" lon="4.3293">
        <ele>845.02111816406</ele>
        <time>2020-06-19T15:46:04.037Z</time>
      </trkpt>
      <trkpt lat="45.22487" lon="4.32921">
        <ele>849.33294677734</ele>
        <time>2020-06-19T15:46:10.967Z</time>
      </trkpt>
      <trkpt lat="45.22498" lon="4.32919">
        <ele>850.89331054688</ele>
        <time>2020-06-19T15:46:17.901Z</time>
      </trkpt>
      <trkpt lat="45.22508" lon="4.3292">
        <ele>851.86962890625</ele>
        <time>2020-06-19T15:46:24.838Z</time>
      </trkpt>
      <trkpt lat="45.22526" lon="4.32928">
        <ele>852.41802978516</ele>
        <time>2020-06-19T15:46:31.782Z</time>
      </trkpt>
      <trkpt lat="45.22544" lon="4.32945">
        <ele>851.21502685547</ele>
        <time>2020-06-19T15:46:38.733Z</time>
      </trkpt>
      <trkpt lat="45.22554" lon="4.32952">
        <ele>852.51190185547</ele>
        <time>2020-06-19T15:46:45.688Z</time>
      </trkpt>
      <trkpt lat="45.22569" lon="4.32954">
        <ele>855.31317138672</ele>
        <time>2020-06-19T15:46:52.648Z</time>
      </trkpt>
      <trkpt lat="45.22586" lon="4.32951">
        <ele>858.60729980469</ele>
        <time>2020-06-19T15:46:59.614Z</time>
      </trkpt>
      <trkpt lat="45.22595" lon="4.32955">
        <ele>860.26971435547</ele>
        <time>2020-06-19T15:47:06.584Z</time>
      </trkpt>
      <trkpt lat="45.22606" lon="4.32964">
        <ele>861.97570800781</ele>
        <time>2020-06-19T15:47:13.558Z</time>
      </trkpt>
      <trkpt lat="45.22616" lon="4.32982">
        <ele>863.23852539062</ele>
        <time>2020-06-19T15:47:20.537Z</time>
      </trkpt>
      <trkpt lat="45.22625" lon="4.32993">
        <ele>864.59008789062</ele>
        <time>2020-06-19T15:47:27.521Z</time>
      </trkpt>
      <trkpt lat="45.22631" lon="4.32998">
        <ele>865.68865966797</ele>
        <time>2020-06-19T15:47:34.507Z</time>
      </trkpt>
      <trkpt lat="45.22643" lon="4.33004">
        <ele>868.14367675781</ele>
        <time>2020-06-19T15:47:41.497Z</time>
      </trkpt>
      <trkpt lat="45.22651" lon="4.33005">
        <ele>869.87457275391</ele>
        <time>2020-06-19T15:47:48.490Z</time>
      </trkpt>
      <trkpt lat="45.22655" lon="4.32999">
        <ele>871.15728759766</ele>
        <time>2020-06-19T15:47:55.485Z</time>
      </trkpt>
      <trkpt lat="45.22675" lon="4.3295">
        <ele>874.8349609375</ele>
        <time>2020-06-19T15:48:02.494Z</time>
      </trkpt>
      <trkpt lat="45.22683" lon="4.3294">
        <ele>876.75848388672</ele>
        <time>2020-06-19T15:48:09.507Z</time>
      </trkpt>
      <trkpt lat="45.22695" lon="4.32932">
        <ele>879.66583251953</ele>
        <time>2020-06-19T15:48:16.524Z</time>
      </trkpt>
      <trkpt lat="45.22709" lon="4.32932">
        <ele>880.91796875</ele>
        <time>2020-06-19T15:48:23.546Z</time>
      </trkpt>
      <trkpt lat="45.22728" lon="4.32938">
        <ele>883.38018798828</ele>
        <time>2020-06-19T15:48:30.575Z</time>
      </trkpt>
      <trkpt lat="45.22755" lon="4.32941">
        <ele>887.26629638672</ele>
        <time>2020-06-19T15:48:37.613Z</time>
      </trkpt>
      <trkpt lat="45.22765" lon="4.3294">
        <ele>888.62884521484</ele>
        <time>2020-06-19T15:48:44.655Z</time>
      </trkpt>
      <trkpt lat="45.22778" lon="4.32932">
        <ele>890.7158203125</ele>
        <time>2020-06-19T15:48:51.702Z</time>
      </trkpt>
      <trkpt lat="45.22791" lon="4.32932">
        <ele>890.79779052734</ele>
        <time>2020-06-19T15:48:58.753Z</time>
      </trkpt>
      <trkpt lat="45.22807" lon="4.32936">
        <ele>890.740234375</ele>
        <time>2020-06-19T15:49:05.810Z</time>
      </trkpt>
      <trkpt lat="45.22819" lon="4.32944">
        <ele>891.37841796875</ele>
        <time>2020-06-19T15:49:12.871Z</time>
      </trkpt>
      <trkpt lat="45.22826" lon="4.32953">
        <ele>892.35424804688</ele>
        <time>2020-06-19T15:49:19.936Z</time>
      </trkpt>
      <trkpt lat="45.22831" lon="4.32956">
        <ele>892.44610595703</ele>
        <time>2020-06-19T15:49:27.002Z</time>
      </trkpt>
      <trkpt lat="45.22834" lon="4.32953">
        <ele>891.92413330078</ele>
        <time>2020-06-19T15:49:34.070Z</time>
      </trkpt>
      <trkpt lat="45.22836" lon="4.32946">
        <ele>890.85034179688</ele>
        <time>2020-06-19T15:49:41.139Z</time>
      </trkpt>
      <trkpt lat="45.22839" lon="4.32944">
        <ele>890.45672607422</ele>
        <time>2020-06-19T15:49:48.209Z</time>
      </trkpt>
      <trkpt lat="45.22844" lon="4.32943">
        <ele>890.08911132812</ele>
        <time>2020-06-19T15:49:55.281Z</time>
      </trkpt>
      <trkpt lat="45.22852" lon="4.32946">
        <ele>890.01361083984</ele>
        <time>2020-06-19T15:50:02.356Z</time>
      </trkpt>
      <trkpt lat="45.22867" lon="4.32946">
        <ele>889.39611816406</ele>
        <time>2020-06-19T15:50:09.436Z</time>
      </trkpt>
      <trkpt lat="45.22893" lon="4.32938">
        <ele>887.09954833984</ele>
        <time>2020-06-19T15:50:16.525Z</time>
      </trkpt>
      <trkpt lat="45.229" lon="4.32934">
        <ele>886.04058837891</ele>
        <time>2020-06-19T15:50:23.617Z</time>
      </trkpt>
      <trkpt lat="45.22921" lon="4.32907">
        <ele>880.38195800781</ele>
        <time>2020-06-19T15:50:30.719Z</time>
      </trkpt>
      <trkpt lat="45.22947" lon="4.32888">
        <ele>877.34228515625</ele>
        <time>2020-06-19T15:50:37.831Z</time>
      </trkpt>
      <trkpt lat="45.22955" lon="4.32885">
        <ele>876.94647216797</ele>
        <time>2020-06-19T15:50:44.946Z</time>
      </trkpt>
      <trkpt lat="45.2297" lon="4.32885">
        <ele>875.60778808594</ele>
        <time>2020-06-19T15:50:52.066Z</time>
      </trkpt>
      <trkpt lat="45.22985" lon="4.32888">
        <ele>873.82232666016</ele>
        <time>2020-06-19T15:50:59.191Z</time>
      </trkpt>
      <trkpt lat="45.2301" lon="4.32906">
        <ele>874.68725585938</ele>
        <time>2020-06-19T15:51:06.326Z</time>
      </trkpt>
      <trkpt lat="45.23029" lon="4.32916">
        <ele>876.19903564453</ele>
        <time>2020-06-19T15:51:13.468Z</time>
      </trkpt>
      <trkpt lat="45.23057" lon="4.3292">
        <ele>879.63037109375</ele>
        <time>2020-06-19T15:51:20.619Z</time>
      </trkpt>
      <trkpt lat="45.2307" lon="4.32927">
        <ele>880.63439941406</ele>
        <time>2020-06-19T15:51:27.775Z</time>
      </trkpt>
      <trkpt lat="45.23082" lon="4.32931">
        <ele>881.95703125</ele>
        <time>2020-06-19T15:51:34.936Z</time>
      </trkpt>
      <trkpt lat="45.231" lon="4.32932">
        <ele>884.51123046875</ele>
        <time>2020-06-19T15:51:42.103Z</time>
      </trkpt>
      <trkpt lat="45.23107" lon="4.32934">
        <ele>885.33001708984</ele>
        <time>2020-06-19T15:51:49.272Z</time>
      </trkpt>
      <trkpt lat="45.23113" lon="4.3293">
        <ele>886.60736083984</ele>
        <time>2020-06-19T15:51:56.444Z</time>
      </trkpt>
      <trkpt lat="45.23115" lon="4.32924">
        <ele>888.37750244141</ele>
        <time>2020-06-19T15:52:03.617Z</time>
      </trkpt>
      <trkpt lat="45.23114" lon="4.32913">
        <ele>890.3662109375</ele>
        <time>2020-06-19T15:52:10.793Z</time>
      </trkpt>
      <trkpt lat="45.23111" lon="4.32903">
        <ele>891.74841308594</ele>
        <time>2020-06-19T15:52:17.972Z</time>
      </trkpt>
      <trkpt lat="45.23107" lon="4.32898">
        <ele>891.77612304688</ele>
        <time>2020-06-19T15:52:25.152Z</time>
      </trkpt>
      <trkpt lat="45.23102" lon="4.32897">
        <ele>890.69635009766</ele>
        <time>2020-06-19T15:52:32.334Z</time>
      </trkpt>
      <trkpt lat="45.23094" lon="4.32891">
        <ele>890.10656738281</ele>
        <time>2020-06-19T15:52:39.519Z</time>
      </trkpt>
      <trkpt lat="45.23078" lon="4.32867">
        <ele>891.20782470703</ele>
        <time>2020-06-19T15:52:46.712Z</time>
      </trkpt>
      <trkpt lat="45.23071" lon="4.3285">
        <ele>892.64794921875</ele>
        <time>2020-06-19T15:52:53.910Z</time>
      </trkpt>
      <trkpt lat="45.23069" lon="4.32836">
        <ele>894.48022460938</ele>
        <time>2020-06-19T15:53:01.111Z</time>
      </trkpt>
      <trkpt lat="45.23067" lon="4.32808">
        <ele>899.26214599609</ele>
        <time>2020-06-19T15:53:08.320Z</time>
      </trkpt>
      <trkpt lat="45.23063" lon="4.32794">
        <ele>900.68566894531</ele>
        <time>2020-06-19T15:53:15.532Z</time>
      </trkpt>
      <trkpt lat="45.2305" lon="4.3277">
        <ele>901.66870117188</ele>
        <time>2020-06-19T15:53:22.751Z</time>
      </trkpt>
      <trkpt lat="45.23042" lon="4.32759">
        <ele>901.36676025391</ele>
        <time>2020-06-19T15:53:29.974Z</time>
      </trkpt>
      <trkpt lat="45.23028" lon="4.32753">
        <ele>899.31317138672</ele>
        <time>2020-06-19T15:53:37.203Z</time>
      </trkpt>
      <trkpt lat="45.2301" lon="4.32743">
        <ele>897.19879150391</ele>
        <time>2020-06-19T15:53:44.438Z</time>
      </trkpt>
      <trkpt lat="45.23001" lon="4.3273">
        <ele>897.09924316406</ele>
        <time>2020-06-19T15:53:51.678Z</time>
      </trkpt>
      <trkpt lat="45.22995" lon="4.32716">
        <ele>898.08428955078</ele>
        <time>2020-06-19T15:53:58.921Z</time>
      </trkpt>
      <trkpt lat="45.22991" lon="4.32692">
        <ele>899.75439453125</ele>
        <time>2020-06-19T15:54:06.170Z</time>
      </trkpt>
      <trkpt lat="45.22991" lon="4.32658">
        <ele>898.40277099609</ele>
        <time>2020-06-19T15:54:13.428Z</time>
      </trkpt>
      <trkpt lat="45.22993" lon="4.32632">
        <ele>898.14569091797</ele>
        <time>2020-06-19T15:54:20.692Z</time>
      </trkpt>
      <trkpt lat="45.23001" lon="4.32602">
        <ele>897.83563232422</ele>
        <time>2020-06-19T15:54:27.964Z</time>
      </trkpt>
      <trkpt lat="45.2302" lon="4.32544">
        <ele>893.21002197266</ele>
        <time>2020-06-19T15:54:35.251Z</time>
      </trkpt>
      <trkpt lat="45.23025" lon="4.32533">
        <ele>892.50787353516</ele>
        <time>2020-06-19T15:54:42.542Z</time>
      </trkpt>
      <trkpt lat="45.23054" lon="4.32492">
        <ele>892.60015869141</ele>
        <time>2020-06-19T15:54:49.847Z</time>
      </trkpt>
      <trkpt lat="45.23078" lon="4.32469">
        <ele>895.04443359375</ele>
        <time>2020-06-19T15:54:57.162Z</time>
      </trkpt>
      <trkpt lat="45.23097" lon="4.32445">
        <ele>894.87622070312</ele>
        <time>2020-06-19T15:55:04.486Z</time>
      </trkpt>
      <trkpt lat="45.2311" lon="4.32433">
        <ele>899.27697753906</ele>
        <time>2020-06-19T15:55:11.815Z</time>
      </trkpt>
      <trkpt lat="45.23132" lon="4.32418">
        <ele>900.88171386719</ele>
        <time>2020-06-19T15:55:19.152Z</time>
      </trkpt>
      <trkpt lat="45.23137" lon="4.32406">
        <ele>902.05999755859</ele>
        <time>2020-06-19T15:55:26.493Z</time>
      </trkpt>
      <trkpt lat="45.23138" lon="4.32397">
        <ele>901.95281982422</ele>
        <time>2020-06-19T15:55:33.836Z</time>
      </trkpt>
      <trkpt lat="45.23136" lon="4.32389">
        <ele>900.89654541016</ele>
        <time>2020-06-19T15:55:41.181Z</time>
      </trkpt>
      <trkpt lat="45.2313" lon="4.32381">
        <ele>898.94830322266</ele>
        <time>2020-06-19T15:55:48.529Z</time>
      </trkpt>
      <trkpt lat="45.23109" lon="4.32364">
        <ele>897.51989746094</ele>
        <time>2020-06-19T15:55:55.885Z</time>
      </trkpt>
      <trkpt lat="45.23089" lon="4.3235">
        <ele>899.64770507812</ele>
        <time>2020-06-19T15:56:03.249Z</time>
      </trkpt>
      <trkpt lat="45.23058" lon="4.3232">
        <ele>904.62811279297</ele>
        <time>2020-06-19T15:56:10.626Z</time>
      </trkpt>
      <trkpt lat="45.23015" lon="4.32286">
        <ele>905.39715576172</ele>
        <time>2020-06-19T15:56:18.020Z</time>
      </trkpt>
      <trkpt lat="45.23004" lon="4.32259">
        <ele>908.7421875</ele>
        <time>2020-06-19T15:56:25.422Z</time>
      </trkpt>
      <trkpt lat="45.23" lon="4.32252">
        <ele>909.20648193359</ele>
        <time>2020-06-19T15:56:32.826Z</time>
      </trkpt>
      <trkpt lat="45.22987" lon="4.32222">
        <ele>912.71166992188</ele>
        <time>2020-06-19T15:56:40.238Z</time>
      </trkpt>
      <trkpt lat="45.22984" lon="4.32217">
        <ele>912.84161376953</ele>
        <time>2020-06-19T15:56:47.652Z</time>
      </trkpt>
      <trkpt lat="45.22972" lon="4.32209">
        <ele>912.47509765625</ele>
        <time>2020-06-19T15:56:55.071Z</time>
      </trkpt>
      <trkpt lat="45.22955" lon="4.322">
        <ele>911.63037109375</ele>
        <time>2020-06-19T15:57:02.495Z</time>
      </trkpt>
      <trkpt lat="45.22926" lon="4.32177">
        <ele>910.29986572266</ele>
        <time>2020-06-19T15:57:09.931Z</time>
      </trkpt>
      <trkpt lat="45.22916" lon="4.32171">
        <ele>909.58526611328</ele>
        <time>2020-06-19T15:57:17.371Z</time>
      </trkpt>
      <trkpt lat="45.22905" lon="4.32157">
        <ele>909.24188232422</ele>
        <time>2020-06-19T15:57:24.816Z</time>
      </trkpt>
      <trkpt lat="45.22907" lon="4.32157">
        <ele>909.40051269531</ele>
        <time>2020-06-19T15:57:32.262Z</time>
      </trkpt>
      <trkpt lat="45.22914" lon="4.32152">
        <ele>910.54052734375</ele>
        <time>2020-06-19T15:57:39.711Z</time>
      </trkpt>
      <trkpt lat="45.22921" lon="4.3215">
        <ele>911.37451171875</ele>
        <time>2020-06-19T15:57:47.162Z</time>
      </trkpt>
      <trkpt lat="45.22925" lon="4.32151">
        <ele>911.78674316406</ele>
        <time>2020-06-19T15:57:54.614Z</time>
      </trkpt>
      <trkpt lat="45.22949" lon="4.32145">
        <ele>914.65838623047</ele>
        <time>2020-06-19T15:58:02.075Z</time>
      </trkpt>
      <trkpt lat="45.22962" lon="4.32145">
        <ele>916.13793945312</ele>
        <time>2020-06-19T15:58:09.540Z</time>
      </trkpt>
      <trkpt lat="45.22975" lon="4.32139">
        <ele>917.25946044922</ele>
        <time>2020-06-19T15:58:17.010Z</time>
      </trkpt>
      <trkpt lat="45.22992" lon="4.32126">
        <ele>918.21423339844</ele>
        <time>2020-06-19T15:58:24.487Z</time>
      </trkpt>
      <trkpt lat="45.22999" lon="4.32106">
        <ele>917.69842529297</ele>
        <time>2020-06-19T15:58:31.969Z</time>
      </trkpt>
      <trkpt lat="45.23001" lon="4.32088">
        <ele>915.98059082031</ele>
        <time>2020-06-19T15:58:39.456Z</time>
      </trkpt>
      <trkpt lat="45.2301" lon="4.32076">
        <ele>915.06878662109</ele>
        <time>2020-06-19T15:58:46.947Z</time>
      </trkpt>
      <trkpt lat="45.23021" lon="4.32068">
        <ele>915.85668945312</ele>
        <time>2020-06-19T15:58:54.442Z</time>
      </trkpt>
      <trkpt lat="45.23036" lon="4.32042">
        <ele>916.47479248047</ele>
        <time>2020-06-19T15:59:01.945Z</time>
      </trkpt>
      <trkpt lat="45.23038" lon="4.32032">
        <ele>916.40106201172</ele>
        <time>2020-06-19T15:59:09.451Z</time>
      </trkpt>
      <trkpt lat="45.23044" lon="4.32018">
        <ele>914.72491455078</ele>
        <time>2020-06-19T15:59:16.961Z</time>
      </trkpt>
      <trkpt lat="45.23059" lon="4.31994">
        <ele>912.66918945312</ele>
        <time>2020-06-19T15:59:24.478Z</time>
      </trkpt>
      <trkpt lat="45.23062" lon="4.31984">
        <ele>911.35632324219</ele>
        <time>2020-06-19T15:59:31.998Z</time>
      </trkpt>
      <trkpt lat="45.23082" lon="4.31952">
        <ele>910.55023193359</ele>
        <time>2020-06-19T15:59:39.529Z</time>
      </trkpt>
      <trkpt lat="45.23102" lon="4.31906">
        <ele>907.32800292969</ele>
        <time>2020-06-19T15:59:47.073Z</time>
      </trkpt>
      <trkpt lat="45.23105" lon="4.31878">
        <ele>905.34307861328</ele>
        <time>2020-06-19T15:59:54.624Z</time>
      </trkpt>
      <trkpt lat="45.23115" lon="4.31856">
        <ele>905.04138183594</ele>
        <time>2020-06-19T16:00:02.181Z</time>
      </trkpt>
      <trkpt lat="45.23124" lon="4.31816">
        <ele>901.31359863281</ele>
        <time>2020-06-19T16:00:09.748Z</time>
      </trkpt>
      <trkpt lat="45.23125" lon="4.31801">
        <ele>899.29193115234</ele>
        <time>2020-06-19T16:00:17.319Z</time>
      </trkpt>
      <trkpt lat="45.23138" lon="4.31769">
        <ele>897.98138427734</ele>
        <time>2020-06-19T16:00:24.899Z</time>
      </trkpt>
      <trkpt lat="45.23144" lon="4.31747">
        <ele>896.78051757812</ele>
        <time>2020-06-19T16:00:32.485Z</time>
      </trkpt>
      <trkpt lat="45.23153" lon="4.3173">
        <ele>896.85101318359</ele>
        <time>2020-06-19T16:00:40.076Z</time>
      </trkpt>
      <trkpt lat="45.2316" lon="4.31708">
        <ele>894.50646972656</ele>
        <time>2020-06-19T16:00:47.673Z</time>
      </trkpt>
      <trkpt lat="45.23169" lon="4.31672">
        <ele>891.20129394531</ele>
        <time>2020-06-19T16:00:55.279Z</time>
      </trkpt>
      <trkpt lat="45.23176" lon="4.31635">
        <ele>886.53454589844</ele>
        <time>2020-06-19T16:01:02.894Z</time>
      </trkpt>
      <trkpt lat="45.23187" lon="4.31601">
        <ele>883.26245117188</ele>
        <time>2020-06-19T16:01:10.518Z</time>
      </trkpt>
      <trkpt lat="45.23196" lon="4.31583">
        <ele>883.20776367188</ele>
        <time>2020-06-19T16:01:18.148Z</time>
      </trkpt>
      <trkpt lat="45.23225" lon="4.31555">
        <ele>884.70166015625</ele>
        <time>2020-06-19T16:01:25.790Z</time>
      </trkpt>
      <trkpt lat="45.23234" lon="4.31542">
        <ele>884.30487060547</ele>
        <time>2020-06-19T16:01:33.436Z</time>
      </trkpt>
      <trkpt lat="45.23243" lon="4.31516">
        <ele>882.34069824219</ele>
        <time>2020-06-19T16:01:41.089Z</time>
      </trkpt>
      <trkpt lat="45.23249" lon="4.31505">
        <ele>882.14855957031</ele>
        <time>2020-06-19T16:01:48.746Z</time>
      </trkpt>
      <trkpt lat="45.23251" lon="4.31489">
        <ele>881.23260498047</ele>
        <time>2020-06-19T16:01:56.407Z</time>
      </trkpt>
      <trkpt lat="45.23255" lon="4.31473">
        <ele>879.86968994141</ele>
        <time>2020-06-19T16:02:04.072Z</time>
      </trkpt>
      <trkpt lat="45.2329" lon="4.31395">
        <ele>876.07598876953</ele>
        <time>2020-06-19T16:02:11.759Z</time>
      </trkpt>
      <trkpt lat="45.23298" lon="4.31381">
        <ele>875.55865478516</ele>
        <time>2020-06-19T16:02:19.451Z</time>
      </trkpt>
      <trkpt lat="45.23309" lon="4.31371">
        <ele>875.82214355469</ele>
        <time>2020-06-19T16:02:27.147Z</time>
      </trkpt>
      <trkpt lat="45.23328" lon="4.31359">
        <ele>876.40588378906</ele>
        <time>2020-06-19T16:02:34.850Z</time>
      </trkpt>
      <trkpt lat="45.2335" lon="4.31356">
        <ele>878.01495361328</ele>
        <time>2020-06-19T16:02:42.561Z</time>
      </trkpt>
      <trkpt lat="45.23358" lon="4.31353">
        <ele>878.48083496094</ele>
        <time>2020-06-19T16:02:50.275Z</time>
      </trkpt>
      <trkpt lat="45.23369" lon="4.31346">
        <ele>878.66772460938</ele>
        <time>2020-06-19T16:02:57.993Z</time>
      </trkpt>
      <trkpt lat="45.23376" lon="4.3134">
        <ele>878.34259033203</ele>
        <time>2020-06-19T16:03:05.714Z</time>
      </trkpt>
      <trkpt lat="45.23392" lon="4.31315">
        <ele>877.21813964844</ele>
        <time>2020-06-19T16:03:13.443Z</time>
      </trkpt>
      <trkpt lat="45.23409" lon="4.31295">
        <ele>876.07788085938</ele>
        <time>2020-06-19T16:03:21.180Z</time>
      </trkpt>
      <trkpt lat="45.23452" lon="4.31235">
        <ele>870.37438964844</ele>
        <time>2020-06-19T16:03:28.938Z</time>
      </trkpt>
      <trkpt lat="45.23464" lon="4.31225">
        <ele>869.76055908203</ele>
        <time>2020-06-19T16:03:36.700Z</time>
      </trkpt>
      <trkpt lat="45.23515" lon="4.31194">
        <ele>868.91424560547</ele>
        <time>2020-06-19T16:03:44.481Z</time>
      </trkpt>
      <trkpt lat="45.23525" lon="4.31187">
        <ele>868.76623535156</ele>
        <time>2020-06-19T16:03:52.266Z</time>
      </trkpt>
      <trkpt lat="45.2353" lon="4.31182">
        <ele>868.4892578125</ele>
        <time>2020-06-19T16:04:00.053Z</time>
      </trkpt>
      <trkpt lat="45.23539" lon="4.31168">
        <ele>867.7001953125</ele>
        <time>2020-06-19T16:04:07.845Z</time>
      </trkpt>
      <trkpt lat="45.23552" lon="4.31138">
        <ele>865.76428222656</ele>
        <time>2020-06-19T16:04:15.646Z</time>
      </trkpt>
      <trkpt lat="45.23568" lon="4.31112">
        <ele>864.07305908203</ele>
        <time>2020-06-19T16:04:23.455Z</time>
      </trkpt>
      <trkpt lat="45.2358" lon="4.31084">
        <ele>861.44927978516</ele>
        <time>2020-06-19T16:04:31.272Z</time>
      </trkpt>
      <trkpt lat="45.23588" lon="4.31071">
        <ele>860.35443115234</ele>
        <time>2020-06-19T16:04:39.093Z</time>
      </trkpt>
      <trkpt lat="45.23606" lon="4.31055">
        <ele>859.15008544922</ele>
        <time>2020-06-19T16:04:46.921Z</time>
      </trkpt>
      <trkpt lat="45.23642" lon="4.31036">
        <ele>857.81274414062</ele>
        <time>2020-06-19T16:04:54.763Z</time>
      </trkpt>
      <trkpt lat="45.23679" lon="4.30998">
        <ele>853.53527832031</ele>
        <time>2020-06-19T16:05:02.621Z</time>
      </trkpt>
      <trkpt lat="45.23686" lon="4.30993">
        <ele>853.76770019531</ele>
        <time>2020-06-19T16:05:10.481Z</time>
      </trkpt>
      <trkpt lat="45.23715" lon="4.30978">
        <ele>855.62622070312</ele>
        <time>2020-06-19T16:05:18.352Z</time>
      </trkpt>
      <trkpt lat="45.23726" lon="4.30965">
        <ele>856.50354003906</ele>
        <time>2020-06-19T16:05:26.228Z</time>
      </trkpt>
      <trkpt lat="45.23742" lon="4.30944">
        <ele>857.36633300781</ele>
        <time>2020-06-19T16:05:34.111Z</time>
      </trkpt>
      <trkpt lat="45.23769" lon="4.30919">
        <ele>859.52770996094</ele>
        <time>2020-06-19T16:05:42.006Z</time>
      </trkpt>
      <trkpt lat="45.23777" lon="4.30907">
        <ele>860.26940917969</ele>
        <time>2020-06-19T16:05:49.905Z</time>
      </trkpt>
      <trkpt lat="45.23782" lon="4.30894">
        <ele>860.27996826172</ele>
        <time>2020-06-19T16:05:57.807Z</time>
      </trkpt>
      <trkpt lat="45.23783" lon="4.30884">
        <ele>859.95263671875</ele>
        <time>2020-06-19T16:06:05.712Z</time>
      </trkpt>
      <trkpt lat="45.23785" lon="4.30845">
        <ele>858.07153320312</ele>
        <time>2020-06-19T16:06:13.626Z</time>
      </trkpt>
      <trkpt lat="45.23781" lon="4.30789">
        <ele>853.48809814453</ele>
        <time>2020-06-19T16:06:21.554Z</time>
      </trkpt>
      <trkpt lat="45.2378" lon="4.30745">
        <ele>850.12774658203</ele>
        <time>2020-06-19T16:06:29.492Z</time>
      </trkpt>
      <trkpt lat="45.23774" lon="4.30717">
        <ele>846.89678955078</ele>
        <time>2020-06-19T16:06:37.438Z</time>
      </trkpt>
      <trkpt lat="45.23756" lon="4.30681">
        <ele>842.66461181641</ele>
        <time>2020-06-19T16:06:45.394Z</time>
      </trkpt>
      <trkpt lat="45.23756" lon="4.30674">
        <ele>842.32867431641</ele>
        <time>2020-06-19T16:06:53.352Z</time>
      </trkpt>
      <trkpt lat="45.23762" lon="4.30661">
        <ele>842.44384765625</ele>
        <time>2020-06-19T16:07:01.314Z</time>
      </trkpt>
      <trkpt lat="45.23782" lon="4.30638">
        <ele>841.97790527344</ele>
        <time>2020-06-19T16:07:09.285Z</time>
      </trkpt>
      <trkpt lat="45.23789" lon="4.30625">
        <ele>841.38409423828</ele>
        <time>2020-06-19T16:07:17.260Z</time>
      </trkpt>
      <trkpt lat="45.23795" lon="4.30588">
        <ele>839.76293945312</ele>
        <time>2020-06-19T16:07:25.244Z</time>
      </trkpt>
      <trkpt lat="45.23803" lon="4.30514">
        <ele>835.87341308594</ele>
        <time>2020-06-19T16:07:33.246Z</time>
      </trkpt>
      <trkpt lat="45.23809" lon="4.30484">
        <ele>834.13244628906</ele>
        <time>2020-06-19T16:07:41.256Z</time>
      </trkpt>
      <trkpt lat="45.23817" lon="4.30456">
        <ele>832.57946777344</ele>
        <time>2020-06-19T16:07:49.273Z</time>
      </trkpt>
      <trkpt lat="45.2386" lon="4.30346">
        <ele>833.56457519531</ele>
        <time>2020-06-19T16:07:57.321Z</time>
      </trkpt>
      <trkpt lat="45.23862" lon="4.30336">
        <ele>834.22399902344</ele>
        <time>2020-06-19T16:08:05.371Z</time>
      </trkpt>
      <trkpt lat="45.23866" lon="4.30296">
        <ele>836.64184570312</ele>
        <time>2020-06-19T16:08:13.431Z</time>
      </trkpt>
      <trkpt lat="45.23871" lon="4.30272">
        <ele>838.12817382812</ele>
        <time>2020-06-19T16:08:21.497Z</time>
      </trkpt>
      <trkpt lat="45.23878" lon="4.30253">
        <ele>837.96856689453</ele>
        <time>2020-06-19T16:08:29.569Z</time>
      </trkpt>
      <trkpt lat="45.239" lon="4.30209">
        <ele>838.64721679688</ele>
        <time>2020-06-19T16:08:37.654Z</time>
      </trkpt>
      <trkpt lat="45.23918" lon="4.30186">
        <ele>838.51708984375</ele>
        <time>2020-06-19T16:08:45.747Z</time>
      </trkpt>
      <trkpt lat="45.23936" lon="4.3017">
        <ele>838.84313964844</ele>
        <time>2020-06-19T16:08:53.847Z</time>
      </trkpt>
      <trkpt lat="45.23964" lon="4.30148">
        <ele>838.39965820312</ele>
        <time>2020-06-19T16:09:01.958Z</time>
      </trkpt>
      <trkpt lat="45.24027" lon="4.30104">
        <ele>836.97802734375</ele>
        <time>2020-06-19T16:09:10.094Z</time>
      </trkpt>
      <trkpt lat="45.24051" lon="4.30089">
        <ele>836.45648193359</ele>
        <time>2020-06-19T16:09:18.239Z</time>
      </trkpt>
      <trkpt lat="45.2406" lon="4.30078">
        <ele>835.25695800781</ele>
        <time>2020-06-19T16:09:26.388Z</time>
      </trkpt>
      <trkpt lat="45.24079" lon="4.30039">
        <ele>832.91461181641</ele>
        <time>2020-06-19T16:09:34.548Z</time>
      </trkpt>
      <trkpt lat="45.24102" lon="4.30016">
        <ele>831.10949707031</ele>
        <time>2020-06-19T16:09:42.718Z</time>
      </trkpt>
      <trkpt lat="45.24099" lon="4.30012">
        <ele>831.02490234375</ele>
        <time>2020-06-19T16:09:50.889Z</time>
      </trkpt>
      <trkpt lat="45.24097" lon="4.30013">
        <ele>831.15008544922</ele>
        <time>2020-06-19T16:09:59.061Z</time>
      </trkpt>
      <trkpt lat="45.24098" lon="4.30017">
        <ele>831.35205078125</ele>
        <time>2020-06-19T16:10:07.234Z</time>
      </trkpt>
      <trkpt lat="45.24102" lon="4.30016">
        <ele>831.12548828125</ele>
        <time>2020-06-19T16:10:15.408Z</time>
      </trkpt>
      <trkpt lat="45.24105" lon="4.3001">
        <ele>830.64324951172</ele>
        <time>2020-06-19T16:10:23.584Z</time>
      </trkpt>
      <trkpt lat="45.24104" lon="4.30007">
        <ele>830.50891113281</ele>
        <time>2020-06-19T16:10:31.761Z</time>
      </trkpt>
      <trkpt lat="45.24102" lon="4.30007">
        <ele>830.61993408203</ele>
        <time>2020-06-19T16:10:39.939Z</time>
      </trkpt>
      <trkpt lat="45.241" lon="4.30012">
        <ele>830.95471191406</ele>
        <time>2020-06-19T16:10:48.118Z</time>
      </trkpt>
      <trkpt lat="45.24102" lon="4.30014">
        <ele>831.00848388672</ele>
        <time>2020-06-19T16:10:56.298Z</time>
      </trkpt>
      <trkpt lat="45.2411" lon="4.30006">
        <ele>830.32086181641</ele>
        <time>2020-06-19T16:11:04.482Z</time>
      </trkpt>
      <trkpt lat="45.24122" lon="4.29998">
        <ele>829.62799072266</ele>
        <time>2020-06-19T16:11:12.670Z</time>
      </trkpt>
      <trkpt lat="45.24139" lon="4.29981">
        <ele>827.24542236328</ele>
        <time>2020-06-19T16:11:20.865Z</time>
      </trkpt>
      <trkpt lat="45.2416" lon="4.29967">
        <ele>823.76824951172</ele>
        <time>2020-06-19T16:11:29.068Z</time>
      </trkpt>
      <trkpt lat="45.24172" lon="4.29945">
        <ele>821.67816162109</ele>
        <time>2020-06-19T16:11:37.278Z</time>
      </trkpt>
      <trkpt lat="45.24178" lon="4.29938">
        <ele>820.41271972656</ele>
        <time>2020-06-19T16:11:45.491Z</time>
      </trkpt>
      <trkpt lat="45.24209" lon="4.29921">
        <ele>815.57177734375</ele>
        <time>2020-06-19T16:11:53.715Z</time>
      </trkpt>
      <trkpt lat="45.24364" lon="4.2976">
        <ele>826.72625732422</ele>
        <time>2020-06-19T16:12:02.006Z</time>
      </trkpt>
      <trkpt lat="45.24372" lon="4.29764">
        <ele>828.28399658203</ele>
        <time>2020-06-19T16:12:10.300Z</time>
      </trkpt>
      <trkpt lat="45.24378" lon="4.29765">
        <ele>829.54071044922</ele>
        <time>2020-06-19T16:12:18.596Z</time>
      </trkpt>
      <trkpt lat="45.24382" lon="4.29768">
        <ele>829.90093994141</ele>
        <time>2020-06-19T16:12:26.893Z</time>
      </trkpt>
      <trkpt lat="45.24391" lon="4.29771">
        <ele>831.00091552734</ele>
        <time>2020-06-19T16:12:35.193Z</time>
      </trkpt>
      <trkpt lat="45.24406" lon="4.29789">
        <ele>831.28021240234</ele>
        <time>2020-06-19T16:12:43.500Z</time>
      </trkpt>
      <trkpt lat="45.24413" lon="4.29812">
        <ele>829.28234863281</ele>
        <time>2020-06-19T16:12:51.813Z</time>
      </trkpt>
      <trkpt lat="45.24415" lon="4.29855">
        <ele>826.66546630859</ele>
        <time>2020-06-19T16:13:00.137Z</time>
      </trkpt>
      <trkpt lat="45.24425" lon="4.29871">
        <ele>826.48736572266</ele>
        <time>2020-06-19T16:13:08.466Z</time>
      </trkpt>
      <trkpt lat="45.24431" lon="4.29876">
        <ele>826.64556884766</ele>
        <time>2020-06-19T16:13:16.797Z</time>
      </trkpt>
      <trkpt lat="45.24442" lon="4.29883">
        <ele>827.06774902344</ele>
        <time>2020-06-19T16:13:25.132Z</time>
      </trkpt>
      <trkpt lat="45.24454" lon="4.29882">
        <ele>827.8017578125</ele>
        <time>2020-06-19T16:13:33.472Z</time>
      </trkpt>
      <trkpt lat="45.24476" lon="4.29883">
        <ele>830.85870361328</ele>
        <time>2020-06-19T16:13:41.819Z</time>
      </trkpt>
      <trkpt lat="45.24482" lon="4.29885">
        <ele>832.01593017578</ele>
        <time>2020-06-19T16:13:50.168Z</time>
      </trkpt>
      <trkpt lat="45.24495" lon="4.29892">
        <ele>834.29632568359</ele>
        <time>2020-06-19T16:13:58.522Z</time>
      </trkpt>
      <trkpt lat="45.24533" lon="4.29931">
        <ele>840.20233154297</ele>
        <time>2020-06-19T16:14:06.892Z</time>
      </trkpt>
      <trkpt lat="45.24552" lon="4.29957">
        <ele>842.00952148438</ele>
        <time>2020-06-19T16:14:15.272Z</time>
      </trkpt>
      <trkpt lat="45.2456" lon="4.29964">
        <ele>842.7744140625</ele>
        <time>2020-06-19T16:14:23.655Z</time>
      </trkpt>
      <trkpt lat="45.24571" lon="4.29965">
        <ele>845.42181396484</ele>
        <time>2020-06-19T16:14:32.042Z</time>
      </trkpt>
      <trkpt lat="45.24589" lon="4.29957">
        <ele>851.47778320312</ele>
        <time>2020-06-19T16:14:40.435Z</time>
      </trkpt>
      <trkpt lat="45.24606" lon="4.29955">
        <ele>856.45367431641</ele>
        <time>2020-06-19T16:14:48.834Z</time>
      </trkpt>
      <trkpt lat="45.24626" lon="4.2996">
        <ele>860.66619873047</ele>
        <time>2020-06-19T16:14:57.240Z</time>
      </trkpt>
      <trkpt lat="45.24641" lon="4.29962">
        <ele>863.92333984375</ele>
        <time>2020-06-19T16:15:05.651Z</time>
      </trkpt>
      <trkpt lat="45.24654" lon="4.29971">
        <ele>865.32330322266</ele>
        <time>2020-06-19T16:15:14.067Z</time>
      </trkpt>
      <trkpt lat="45.24669" lon="4.29987">
        <ele>865.91748046875</ele>
        <time>2020-06-19T16:15:22.490Z</time>
      </trkpt>
      <trkpt lat="45.24677" lon="4.29991">
        <ele>867.02868652344</ele>
        <time>2020-06-19T16:15:30.916Z</time>
      </trkpt>
      <trkpt lat="45.24692" lon="4.29994">
        <ele>869.65808105469</ele>
        <time>2020-06-19T16:15:39.347Z</time>
      </trkpt>
      <trkpt lat="45.24718" lon="4.29996">
        <ele>874.46490478516</ele>
        <time>2020-06-19T16:15:47.787Z</time>
      </trkpt>
      <trkpt lat="45.24729" lon="4.30006">
        <ele>874.08514404297</ele>
        <time>2020-06-19T16:15:56.231Z</time>
      </trkpt>
      <trkpt lat="45.24738" lon="4.3001">
        <ele>874.40979003906</ele>
        <time>2020-06-19T16:16:04.678Z</time>
      </trkpt>
      <trkpt lat="45.2475" lon="4.3002">
        <ele>874.16864013672</ele>
        <time>2020-06-19T16:16:13.130Z</time>
      </trkpt>
      <trkpt lat="45.24756" lon="4.30021">
        <ele>874.65356445312</ele>
        <time>2020-06-19T16:16:21.584Z</time>
      </trkpt>
      <trkpt lat="45.24766" lon="4.3003">
        <ele>874.39007568359</ele>
        <time>2020-06-19T16:16:30.042Z</time>
      </trkpt>
      <trkpt lat="45.24789" lon="4.30042">
        <ele>875.05926513672</ele>
        <time>2020-06-19T16:16:38.509Z</time>
      </trkpt>
      <trkpt lat="45.24799" lon="4.30049">
        <ele>874.91595458984</ele>
        <time>2020-06-19T16:16:46.980Z</time>
      </trkpt>
      <trkpt lat="45.24815" lon="4.30066">
        <ele>873.84692382812</ele>
        <time>2020-06-19T16:16:55.458Z</time>
      </trkpt>
      <trkpt lat="45.24842" lon="4.30076">
        <ele>875.24993896484</ele>
        <time>2020-06-19T16:17:03.945Z</time>
      </trkpt>
      <trkpt lat="45.24868" lon="4.30081">
        <ele>876.16455078125</ele>
        <time>2020-06-19T16:17:12.441Z</time>
      </trkpt>
      <trkpt lat="45.24889" lon="4.30082">
        <ele>877.27478027344</ele>
        <time>2020-06-19T16:17:20.944Z</time>
      </trkpt>
      <trkpt lat="45.24913" lon="4.30081">
        <ele>878.931640625</ele>
        <time>2020-06-19T16:17:29.456Z</time>
      </trkpt>
      <trkpt lat="45.24924" lon="4.30082">
        <ele>879.48779296875</ele>
        <time>2020-06-19T16:17:37.972Z</time>
      </trkpt>
      <trkpt lat="45.24933" lon="4.30077">
        <ele>880.64752197266</ele>
        <time>2020-06-19T16:17:46.491Z</time>
      </trkpt>
      <trkpt lat="45.24971" lon="4.30082">
        <ele>883.53619384766</ele>
        <time>2020-06-19T16:17:55.023Z</time>
      </trkpt>
      <trkpt lat="45.2498" lon="4.30086">
        <ele>884.51110839844</ele>
        <time>2020-06-19T16:18:03.558Z</time>
      </trkpt>
      <trkpt lat="45.24988" lon="4.30093">
        <ele>885.00305175781</ele>
        <time>2020-06-19T16:18:12.097Z</time>
      </trkpt>
      <trkpt lat="45.25" lon="4.30098">
        <ele>886.34552001953</ele>
        <time>2020-06-19T16:18:20.640Z</time>
      </trkpt>
      <trkpt lat="45.25006" lon="4.30103">
        <ele>886.76177978516</ele>
        <time>2020-06-19T16:18:29.185Z</time>
      </trkpt>
      <trkpt lat="45.25015" lon="4.30117">
        <ele>886.82763671875</ele>
        <time>2020-06-19T16:18:37.735Z</time>
      </trkpt>
      <trkpt lat="45.25025" lon="4.30141">
        <ele>888.09313964844</ele>
        <time>2020-06-19T16:18:46.292Z</time>
      </trkpt>
      <trkpt lat="45.2503" lon="4.30148">
        <ele>888.85675048828</ele>
        <time>2020-06-19T16:18:54.851Z</time>
      </trkpt>
      <trkpt lat="45.2505" lon="4.3017">
        <ele>891.73181152344</ele>
        <time>2020-06-19T16:19:03.419Z</time>
      </trkpt>
      <trkpt lat="45.25065" lon="4.30175">
        <ele>893.07537841797</ele>
        <time>2020-06-19T16:19:11.992Z</time>
      </trkpt>
      <trkpt lat="45.25078" lon="4.30171">
        <ele>894.38262939453</ele>
        <time>2020-06-19T16:19:20.570Z</time>
      </trkpt>
      <trkpt lat="45.25084" lon="4.30156">
        <ele>895.18255615234</ele>
        <time>2020-06-19T16:19:29.152Z</time>
      </trkpt>
      <trkpt lat="45.2509" lon="4.30136">
        <ele>896.67474365234</ele>
        <time>2020-06-19T16:19:37.739Z</time>
      </trkpt>
      <trkpt lat="45.25091" lon="4.3009">
        <ele>897.99096679688</ele>
        <time>2020-06-19T16:19:46.337Z</time>
      </trkpt>
      <trkpt lat="45.25101" lon="4.30046">
        <ele>898.37231445312</ele>
        <time>2020-06-19T16:19:54.947Z</time>
      </trkpt>
      <trkpt lat="45.25106" lon="4.30007">
        <ele>898.19226074219</ele>
        <time>2020-06-19T16:20:03.566Z</time>
      </trkpt>
      <trkpt lat="45.25104" lon="4.29978">
        <ele>895.39947509766</ele>
        <time>2020-06-19T16:20:12.192Z</time>
      </trkpt>
      <trkpt lat="45.25105" lon="4.29973">
        <ele>894.94354248047</ele>
        <time>2020-06-19T16:20:20.820Z</time>
      </trkpt>
      <trkpt lat="45.25107" lon="4.29971">
        <ele>894.796875</ele>
        <time>2020-06-19T16:20:29.448Z</time>
      </trkpt>
      <trkpt lat="45.25112" lon="4.29973">
        <ele>895.11431884766</ele>
        <time>2020-06-19T16:20:38.079Z</time>
      </trkpt>
      <trkpt lat="45.25125" lon="4.29982">
        <ele>896.30279541016</ele>
        <time>2020-06-19T16:20:46.714Z</time>
      </trkpt>
      <trkpt lat="45.2513" lon="4.29984">
        <ele>896.61059570312</ele>
        <time>2020-06-19T16:20:55.351Z</time>
      </trkpt>
      <trkpt lat="45.25141" lon="4.29995">
        <ele>898.29248046875</ele>
        <time>2020-06-19T16:21:03.993Z</time>
      </trkpt>
      <trkpt lat="45.25151" lon="4.3001">
        <ele>900.36785888672</ele>
        <time>2020-06-19T16:21:12.640Z</time>
      </trkpt>
      <trkpt lat="45.25158" lon="4.30017">
        <ele>901.5283203125</ele>
        <time>2020-06-19T16:21:21.290Z</time>
      </trkpt>
      <trkpt lat="45.25162" lon="4.30025">
        <ele>902.47332763672</ele>
        <time>2020-06-19T16:21:29.942Z</time>
      </trkpt>
      <trkpt lat="45.25167" lon="4.30031">
        <ele>903.29431152344</ele>
        <time>2020-06-19T16:21:38.597Z</time>
      </trkpt>
      <trkpt lat="45.25176" lon="4.30036">
        <ele>903.85485839844</ele>
        <time>2020-06-19T16:21:47.255Z</time>
      </trkpt>
      <trkpt lat="45.25182" lon="4.30044">
        <ele>904.36181640625</ele>
        <time>2020-06-19T16:21:55.916Z</time>
      </trkpt>
      <trkpt lat="45.25185" lon="4.30053">
        <ele>904.58740234375</ele>
        <time>2020-06-19T16:22:04.579Z</time>
      </trkpt>
      <trkpt lat="45.25189" lon="4.30059">
        <ele>904.94549560547</ele>
        <time>2020-06-19T16:22:13.244Z</time>
      </trkpt>
      <trkpt lat="45.25193" lon="4.30069">
        <ele>905.31658935547</ele>
        <time>2020-06-19T16:22:21.912Z</time>
      </trkpt>
      <trkpt lat="45.25214" lon="4.3008">
        <ele>906.568359375</ele>
        <time>2020-06-19T16:22:30.588Z</time>
      </trkpt>
      <trkpt lat="45.25221" lon="4.30087">
        <ele>906.48376464844</ele>
        <time>2020-06-19T16:22:39.266Z</time>
      </trkpt>
      <trkpt lat="45.25254" lon="4.30104">
        <ele>905.89947509766</ele>
        <time>2020-06-19T16:22:47.957Z</time>
      </trkpt>
      <trkpt lat="45.25281" lon="4.30125">
        <ele>904.54412841797</ele>
        <time>2020-06-19T16:22:56.658Z</time>
      </trkpt>
      <trkpt lat="45.25302" lon="4.30136">
        <ele>903.44763183594</ele>
        <time>2020-06-19T16:23:05.367Z</time>
      </trkpt>
      <trkpt lat="45.25336" lon="4.3016">
        <ele>902.10046386719</ele>
        <time>2020-06-19T16:23:14.089Z</time>
      </trkpt>
      <trkpt lat="45.25357" lon="4.30169">
        <ele>901.53802490234</ele>
        <time>2020-06-19T16:23:22.819Z</time>
      </trkpt>
      <trkpt lat="45.25373" lon="4.30181">
        <ele>900.73034667969</ele>
        <time>2020-06-19T16:23:31.555Z</time>
      </trkpt>
      <trkpt lat="45.25385" lon="4.30195">
        <ele>900.21710205078</ele>
        <time>2020-06-19T16:23:40.296Z</time>
      </trkpt>
      <trkpt lat="45.25389" lon="4.30196">
        <ele>900.25433349609</ele>
        <time>2020-06-19T16:23:49.039Z</time>
      </trkpt>
      <trkpt lat="45.25379" lon="4.30185">
        <ele>900.43572998047</ele>
        <time>2020-06-19T16:23:57.786Z</time>
      </trkpt>
      <trkpt lat="45.25365" lon="4.30182">
        <ele>900.88391113281</ele>
        <time>2020-06-19T16:24:06.538Z</time>
      </trkpt>
      <trkpt lat="45.25363" lon="4.30178">
        <ele>901.08123779297</ele>
        <time>2020-06-19T16:24:15.291Z</time>
      </trkpt>
      <trkpt lat="45.2537" lon="4.30134">
        <ele>902.48944091797</ele>
        <time>2020-06-19T16:24:24.055Z</time>
      </trkpt>
      <trkpt lat="45.25375" lon="4.30118">
        <ele>902.94866943359</ele>
        <time>2020-06-19T16:24:32.823Z</time>
      </trkpt>
      <trkpt lat="45.25386" lon="4.30097">
        <ele>903.48754882812</ele>
        <time>2020-06-19T16:24:41.598Z</time>
      </trkpt>
      <trkpt lat="45.25393" lon="4.30088">
        <ele>903.76483154297</ele>
        <time>2020-06-19T16:24:50.376Z</time>
      </trkpt>
      <trkpt lat="45.25408" lon="4.30076">
        <ele>904.23077392578</ele>
        <time>2020-06-19T16:24:59.160Z</time>
      </trkpt>
      <trkpt lat="45.25417" lon="4.30071">
        <ele>904.47644042969</ele>
        <time>2020-06-19T16:25:07.947Z</time>
      </trkpt>
      <trkpt lat="45.2542" lon="4.30059">
        <ele>904.05261230469</ele>
        <time>2020-06-19T16:25:16.738Z</time>
      </trkpt>
      <trkpt lat="45.2543" lon="4.30038">
        <ele>902.85327148438</ele>
        <time>2020-06-19T16:25:25.535Z</time>
      </trkpt>
      <trkpt lat="45.25433" lon="4.30028">
        <ele>902.40447998047</ele>
        <time>2020-06-19T16:25:34.334Z</time>
      </trkpt>
      <trkpt lat="45.25447" lon="4.30001">
        <ele>901.06146240234</ele>
        <time>2020-06-19T16:25:43.141Z</time>
      </trkpt>
      <trkpt lat="45.25462" lon="4.29982">
        <ele>899.8671875</ele>
        <time>2020-06-19T16:25:51.956Z</time>
      </trkpt>
      <trkpt lat="45.2549" lon="4.29957">
        <ele>896.73065185547</ele>
        <time>2020-06-19T16:26:00.782Z</time>
      </trkpt>
      <trkpt lat="45.25505" lon="4.29947">
        <ele>894.48278808594</ele>
        <time>2020-06-19T16:26:09.614Z</time>
      </trkpt>
      <trkpt lat="45.25516" lon="4.29943">
        <ele>892.99468994141</ele>
        <time>2020-06-19T16:26:18.449Z</time>
      </trkpt>
      <trkpt lat="45.25531" lon="4.29939">
        <ele>891.10424804688</ele>
        <time>2020-06-19T16:26:27.290Z</time>
      </trkpt>
      <trkpt lat="45.25543" lon="4.29938">
        <ele>889.88049316406</ele>
        <time>2020-06-19T16:26:36.135Z</time>
      </trkpt>
      <trkpt lat="45.25553" lon="4.2994">
        <ele>888.26135253906</ele>
        <time>2020-06-19T16:26:44.983Z</time>
      </trkpt>
      <trkpt lat="45.25561" lon="4.29944">
        <ele>886.61437988281</ele>
        <time>2020-06-19T16:26:53.834Z</time>
      </trkpt>
      <trkpt lat="45.25608" lon="4.2998">
        <ele>877.11926269531</ele>
        <time>2020-06-19T16:27:02.704Z</time>
      </trkpt>
      <trkpt lat="45.25633" lon="4.30013">
        <ele>872.75738525391</ele>
        <time>2020-06-19T16:27:11.585Z</time>
      </trkpt>
      <trkpt lat="45.2565" lon="4.30028">
        <ele>872.73229980469</ele>
        <time>2020-06-19T16:27:20.473Z</time>
      </trkpt>
      <trkpt lat="45.25666" lon="4.30036">
        <ele>872.55560302734</ele>
        <time>2020-06-19T16:27:29.368Z</time>
      </trkpt>
      <trkpt lat="45.25682" lon="4.30038">
        <ele>872.37432861328</ele>
        <time>2020-06-19T16:27:38.268Z</time>
      </trkpt>
      <trkpt lat="45.25716" lon="4.30036">
        <ele>872.04211425781</ele>
        <time>2020-06-19T16:27:47.180Z</time>
      </trkpt>
      <trkpt lat="45.25758" lon="4.30037">
        <ele>872.54534912109</ele>
        <time>2020-06-19T16:27:56.106Z</time>
      </trkpt>
      <trkpt lat="45.25779" lon="4.30042">
        <ele>872.79791259766</ele>
        <time>2020-06-19T16:28:05.040Z</time>
      </trkpt>
      <trkpt lat="45.25801" lon="4.30033">
        <ele>872.76861572266</ele>
        <time>2020-06-19T16:28:13.981Z</time>
      </trkpt>
      <trkpt lat="45.25829" lon="4.30032">
        <ele>872.14685058594</ele>
        <time>2020-06-19T16:28:22.932Z</time>
      </trkpt>
      <trkpt lat="45.25848" lon="4.30028">
        <ele>871.71453857422</ele>
        <time>2020-06-19T16:28:31.890Z</time>
      </trkpt>
      <trkpt lat="45.25903" lon="4.30011">
        <ele>871.16625976562</ele>
        <time>2020-06-19T16:28:40.867Z</time>
      </trkpt>
      <trkpt lat="45.25945" lon="4.29995">
        <ele>871.44348144531</ele>
        <time>2020-06-19T16:28:49.859Z</time>
      </trkpt>
      <trkpt lat="45.26011" lon="4.29963">
        <ele>870.73303222656</ele>
        <time>2020-06-19T16:28:58.875Z</time>
      </trkpt>
      <trkpt lat="45.26076" lon="4.29921">
        <ele>871.16577148438</ele>
        <time>2020-06-19T16:29:07.916Z</time>
      </trkpt>
      <trkpt lat="45.26096" lon="4.29905">
        <ele>870.72717285156</ele>
        <time>2020-06-19T16:29:16.965Z</time>
      </trkpt>
      <trkpt lat="45.26122" lon="4.2989">
        <ele>868.04455566406</ele>
        <time>2020-06-19T16:29:26.023Z</time>
      </trkpt>
      <trkpt lat="45.26168" lon="4.29874">
        <ele>867.84576416016</ele>
        <time>2020-06-19T16:29:35.098Z</time>
      </trkpt>
      <trkpt lat="45.262" lon="4.29866">
        <ele>867.94659423828</ele>
        <time>2020-06-19T16:29:44.184Z</time>
      </trkpt>
      <trkpt lat="45.26218" lon="4.29859">
        <ele>867.17242431641</ele>
        <time>2020-06-19T16:29:53.276Z</time>
      </trkpt>
      <trkpt lat="45.26255" lon="4.29838">
        <ele>861.4619140625</ele>
        <time>2020-06-19T16:30:02.382Z</time>
      </trkpt>
      <trkpt lat="45.26289" lon="4.29826">
        <ele>856.98016357422</ele>
        <time>2020-06-19T16:30:11.500Z</time>
      </trkpt>
      <trkpt lat="45.26297" lon="4.29827">
        <ele>856.05816650391</ele>
        <time>2020-06-19T16:30:20.621Z</time>
      </trkpt>
      <trkpt lat="45.26304" lon="4.29833">
        <ele>855.23046875</ele>
        <time>2020-06-19T16:30:29.745Z</time>
      </trkpt>
      <trkpt lat="45.26323" lon="4.29869">
        <ele>853.4833984375</ele>
        <time>2020-06-19T16:30:38.880Z</time>
      </trkpt>
      <trkpt lat="45.26335" lon="4.29896">
        <ele>852.27447509766</ele>
        <time>2020-06-19T16:30:48.022Z</time>
      </trkpt>
      <trkpt lat="45.26338" lon="4.29898">
        <ele>851.89385986328</ele>
        <time>2020-06-19T16:30:57.166Z</time>
      </trkpt>
      <trkpt lat="45.26345" lon="4.29897">
        <ele>850.96118164062</ele>
        <time>2020-06-19T16:31:06.312Z</time>
      </trkpt>
      <trkpt lat="45.2637" lon="4.29882">
        <ele>847.52368164062</ele>
        <time>2020-06-19T16:31:15.467Z</time>
      </trkpt>
      <trkpt lat="45.2638" lon="4.29874">
        <ele>846.06335449219</ele>
        <time>2020-06-19T16:31:24.627Z</time>
      </trkpt>
      <trkpt lat="45.26386" lon="4.29871">
        <ele>845.45007324219</ele>
        <time>2020-06-19T16:31:33.789Z</time>
      </trkpt>
      <trkpt lat="45.26406" lon="4.29871">
        <ele>844.23986816406</ele>
        <time>2020-06-19T16:31:42.957Z</time>
      </trkpt>
      <trkpt lat="45.26424" lon="4.29877">
        <ele>842.99816894531</ele>
        <time>2020-06-19T16:31:52.132Z</time>
      </trkpt>
      <trkpt lat="45.26435" lon="4.29883">
        <ele>842.17169189453</ele>
        <time>2020-06-19T16:32:01.311Z</time>
      </trkpt>
      <trkpt lat="45.26448" lon="4.29886">
        <ele>841.33465576172</ele>
        <time>2020-06-19T16:32:10.495Z</time>
      </trkpt>
      <trkpt lat="45.26467" lon="4.29886">
        <ele>840.08892822266</ele>
        <time>2020-06-19T16:32:19.685Z</time>
      </trkpt>
      <trkpt lat="45.26486" lon="4.29881">
        <ele>838.65631103516</ele>
        <time>2020-06-19T16:32:28.881Z</time>
      </trkpt>
      <trkpt lat="45.26502" lon="4.29885">
        <ele>837.22393798828</ele>
        <time>2020-06-19T16:32:38.083Z</time>
      </trkpt>
      <trkpt lat="45.2651" lon="4.29889">
        <ele>836.41979980469</ele>
        <time>2020-06-19T16:32:47.288Z</time>
      </trkpt>
      <trkpt lat="45.26543" lon="4.29917">
        <ele>833.02819824219</ele>
        <time>2020-06-19T16:32:56.506Z</time>
      </trkpt>
      <trkpt lat="45.26571" lon="4.29937">
        <ele>829.888671875</ele>
        <time>2020-06-19T16:33:05.735Z</time>
      </trkpt>
      <trkpt lat="45.26594" lon="4.29952">
        <ele>827.28717041016</ele>
        <time>2020-06-19T16:33:14.973Z</time>
      </trkpt>
      <trkpt lat="45.26631" lon="4.29982">
        <ele>823.06280517578</ele>
        <time>2020-06-19T16:33:24.225Z</time>
      </trkpt>
      <trkpt lat="45.26646" lon="4.29988">
        <ele>821.43890380859</ele>
        <time>2020-06-19T16:33:33.483Z</time>
      </trkpt>
      <trkpt lat="45.26676" lon="4.29992">
        <ele>818.41790771484</ele>
        <time>2020-06-19T16:33:42.751Z</time>
      </trkpt>
      <trkpt lat="45.26693" lon="4.29997">
        <ele>816.51208496094</ele>
        <time>2020-06-19T16:33:52.026Z</time>
      </trkpt>
      <trkpt lat="45.2671" lon="4.30005">
        <ele>814.61865234375</ele>
        <time>2020-06-19T16:34:01.307Z</time>
      </trkpt>
      <trkpt lat="45.26745" lon="4.30013">
        <ele>814.58172607422</ele>
        <time>2020-06-19T16:34:10.600Z</time>
      </trkpt>
      <trkpt lat="45.26753" lon="4.30019">
        <ele>814.61553955078</ele>
        <time>2020-06-19T16:34:19.896Z</time>
      </trkpt>
      <trkpt lat="45.26768" lon="4.30035">
        <ele>814.47192382812</ele>
        <time>2020-06-19T16:34:29.198Z</time>
      </trkpt>
      <trkpt lat="45.26779" lon="4.30044">
        <ele>814.28363037109</ele>
        <time>2020-06-19T16:34:38.505Z</time>
      </trkpt>
      <trkpt lat="45.26804" lon="4.30049">
        <ele>814.62524414062</ele>
        <time>2020-06-19T16:34:47.821Z</time>
      </trkpt>
      <trkpt lat="45.26811" lon="4.30047">
        <ele>814.93444824219</ele>
        <time>2020-06-19T16:34:57.139Z</time>
      </trkpt>
      <trkpt lat="45.26822" lon="4.30039">
        <ele>815.39178466797</ele>
        <time>2020-06-19T16:35:06.461Z</time>
      </trkpt>
      <trkpt lat="45.26834" lon="4.30035">
        <ele>815.79260253906</ele>
        <time>2020-06-19T16:35:15.788Z</time>
      </trkpt>
      <trkpt lat="45.26861" lon="4.30027">
        <ele>816.58465576172</ele>
        <time>2020-06-19T16:35:25.124Z</time>
      </trkpt>
      <trkpt lat="45.26868" lon="4.30029">
        <ele>816.73358154297</ele>
        <time>2020-06-19T16:35:34.462Z</time>
      </trkpt>
      <trkpt lat="45.26887" lon="4.3004">
        <ele>816.41711425781</ele>
        <time>2020-06-19T16:35:43.807Z</time>
      </trkpt>
      <trkpt lat="45.26896" lon="4.3005">
        <ele>815.75256347656</ele>
        <time>2020-06-19T16:35:53.156Z</time>
      </trkpt>
      <trkpt lat="45.26934" lon="4.30071">
        <ele>813.05194091797</ele>
        <time>2020-06-19T16:36:02.520Z</time>
      </trkpt>
      <trkpt lat="45.2695" lon="4.30084">
        <ele>811.89581298828</ele>
        <time>2020-06-19T16:36:11.890Z</time>
      </trkpt>
      <trkpt lat="45.2699" lon="4.3013">
        <ele>810.61138916016</ele>
        <time>2020-06-19T16:36:21.278Z</time>
      </trkpt>
      <trkpt lat="45.27005" lon="4.30145">
        <ele>810.64520263672</ele>
        <time>2020-06-19T16:36:30.672Z</time>
      </trkpt>
      <trkpt lat="45.27018" lon="4.30157">
        <ele>810.57733154297</ele>
        <time>2020-06-19T16:36:40.071Z</time>
      </trkpt>
      <trkpt lat="45.27054" lon="4.30179">
        <ele>809.89050292969</ele>
        <time>2020-06-19T16:36:49.484Z</time>
      </trkpt>
      <trkpt lat="45.27089" lon="4.3018">
        <ele>807.84832763672</ele>
        <time>2020-06-19T16:36:58.909Z</time>
      </trkpt>
      <trkpt lat="45.27112" lon="4.30194">
        <ele>806.97839355469</ele>
        <time>2020-06-19T16:37:08.343Z</time>
      </trkpt>
      <trkpt lat="45.27121" lon="4.30193">
        <ele>806.35028076172</ele>
        <time>2020-06-19T16:37:17.780Z</time>
      </trkpt>
      <trkpt lat="45.27126" lon="4.30189">
        <ele>805.94781494141</ele>
        <time>2020-06-19T16:37:27.219Z</time>
      </trkpt>
      <trkpt lat="45.2714" lon="4.30172">
        <ele>804.98309326172</ele>
        <time>2020-06-19T16:37:36.664Z</time>
      </trkpt>
      <trkpt lat="45.27152" lon="4.30148">
        <ele>803.98034667969</ele>
        <time>2020-06-19T16:37:46.116Z</time>
      </trkpt>
      <trkpt lat="45.27189" lon="4.30062">
        <ele>797.11810302734</ele>
        <time>2020-06-19T16:37:55.593Z</time>
      </trkpt>
      <trkpt lat="45.27209" lon="4.30032">
        <ele>793.52404785156</ele>
        <time>2020-06-19T16:38:05.080Z</time>
      </trkpt>
      <trkpt lat="45.27216" lon="4.30024">
        <ele>792.70837402344</ele>
        <time>2020-06-19T16:38:14.570Z</time>
      </trkpt>
      <trkpt lat="45.27222" lon="4.3002">
        <ele>792.05853271484</ele>
        <time>2020-06-19T16:38:24.062Z</time>
      </trkpt>
      <trkpt lat="45.2723" lon="4.30018">
        <ele>791.15972900391</ele>
        <time>2020-06-19T16:38:33.557Z</time>
      </trkpt>
      <trkpt lat="45.2727" lon="4.30028">
        <ele>786.78997802734</ele>
        <time>2020-06-19T16:38:43.066Z</time>
      </trkpt>
      <trkpt lat="45.27302" lon="4.30032">
        <ele>782.93560791016</ele>
        <time>2020-06-19T16:38:52.586Z</time>
      </trkpt>
      <trkpt lat="45.27318" lon="4.30029">
        <ele>780.47241210938</ele>
        <time>2020-06-19T16:39:02.112Z</time>
      </trkpt>
      <trkpt lat="45.27332" lon="4.30022">
        <ele>778.21832275391</ele>
        <time>2020-06-19T16:39:11.643Z</time>
      </trkpt>
      <trkpt lat="45.27357" lon="4.30003">
        <ele>774.70178222656</ele>
        <time>2020-06-19T16:39:21.184Z</time>
      </trkpt>
      <trkpt lat="45.2737" lon="4.29997">
        <ele>774.15875244141</ele>
        <time>2020-06-19T16:39:30.729Z</time>
      </trkpt>
      <trkpt lat="45.27383" lon="4.29994">
        <ele>773.12329101562</ele>
        <time>2020-06-19T16:39:40.279Z</time>
      </trkpt>
      <trkpt lat="45.27397" lon="4.29994">
        <ele>772.05004882812</ele>
        <time>2020-06-19T16:39:49.833Z</time>
      </trkpt>
      <trkpt lat="45.27415" lon="4.29997">
        <ele>770.17230224609</ele>
        <time>2020-06-19T16:39:59.394Z</time>
      </trkpt>
      <trkpt lat="45.27439" lon="4.29997">
        <ele>768.06127929688</ele>
        <time>2020-06-19T16:40:08.963Z</time>
      </trkpt>
      <trkpt lat="45.27455" lon="4.29996">
        <ele>766.61468505859</ele>
        <time>2020-06-19T16:40:18.538Z</time>
      </trkpt>
      <trkpt lat="45.27473" lon="4.29993">
        <ele>766.97601318359</ele>
        <time>2020-06-19T16:40:28.119Z</time>
      </trkpt>
      <trkpt lat="45.27483" lon="4.29993">
        <ele>767.78979492188</ele>
        <time>2020-06-19T16:40:37.703Z</time>
      </trkpt>
      <trkpt lat="45.27501" lon="4.29998">
        <ele>768.87884521484</ele>
        <time>2020-06-19T16:40:47.294Z</time>
      </trkpt>
      <trkpt lat="45.27506" lon="4.30002">
        <ele>768.95837402344</ele>
        <time>2020-06-19T16:40:56.887Z</time>
      </trkpt>
      <trkpt lat="45.27508" lon="4.30007">
        <ele>768.72467041016</ele>
        <time>2020-06-19T16:41:06.481Z</time>
      </trkpt>
      <trkpt lat="45.27513" lon="4.30094">
        <ele>768.50842285156</ele>
        <time>2020-06-19T16:41:16.096Z</time>
      </trkpt>
      <trkpt lat="45.27515" lon="4.30109">
        <ele>768.33905029297</ele>
        <time>2020-06-19T16:41:25.715Z</time>
      </trkpt>
      <trkpt lat="45.27518" lon="4.30115">
        <ele>768.67779541016</ele>
        <time>2020-06-19T16:41:35.336Z</time>
      </trkpt>
      <trkpt lat="45.27522" lon="4.30118">
        <ele>769.54559326172</ele>
        <time>2020-06-19T16:41:44.958Z</time>
      </trkpt>
      <trkpt lat="45.27538" lon="4.30117">
        <ele>771.97509765625</ele>
        <time>2020-06-19T16:41:54.586Z</time>
      </trkpt>
      <trkpt lat="45.27541" lon="4.3012">
        <ele>772.53173828125</ele>
        <time>2020-06-19T16:42:04.215Z</time>
      </trkpt>
      <trkpt lat="45.27542" lon="4.30128">
        <ele>773.20166015625</ele>
        <time>2020-06-19T16:42:13.846Z</time>
      </trkpt>
      <trkpt lat="45.27527" lon="4.30162">
        <ele>772.94323730469</ele>
        <time>2020-06-19T16:42:23.487Z</time>
      </trkpt>
      <trkpt lat="45.27515" lon="4.30182">
        <ele>772.90435791016</ele>
        <time>2020-06-19T16:42:33.134Z</time>
      </trkpt>
      <trkpt lat="45.27505" lon="4.30197">
        <ele>773.03649902344</ele>
        <time>2020-06-19T16:42:42.786Z</time>
      </trkpt>
      <trkpt lat="45.275" lon="4.30214">
        <ele>773.26232910156</ele>
        <time>2020-06-19T16:42:52.443Z</time>
      </trkpt>
      <trkpt lat="45.27504" lon="4.30238">
        <ele>774.93035888672</ele>
        <time>2020-06-19T16:43:02.106Z</time>
      </trkpt>
      <trkpt lat="45.27509" lon="4.30256">
        <ele>776.49652099609</ele>
        <time>2020-06-19T16:43:11.773Z</time>
      </trkpt>
      <trkpt lat="45.27515" lon="4.30308">
        <ele>779.62292480469</ele>
        <time>2020-06-19T16:43:21.453Z</time>
      </trkpt>
      <trkpt lat="45.27513" lon="4.30382">
        <ele>782.62475585938</ele>
        <time>2020-06-19T16:43:31.151Z</time>
      </trkpt>
      <trkpt lat="45.27508" lon="4.30437">
        <ele>782.84503173828</ele>
        <time>2020-06-19T16:43:40.863Z</time>
      </trkpt>
      <trkpt lat="45.27511" lon="4.30452">
        <ele>782.97705078125</ele>
        <time>2020-06-19T16:43:50.579Z</time>
      </trkpt>
      <trkpt lat="45.27517" lon="4.30457">
        <ele>783.46759033203</ele>
        <time>2020-06-19T16:44:00.297Z</time>
      </trkpt>
      <trkpt lat="45.27595" lon="4.30411">
        <ele>789.73504638672</ele>
        <time>2020-06-19T16:44:10.044Z</time>
      </trkpt>
      <trkpt lat="45.27618" lon="4.30394">
        <ele>792.34246826172</ele>
        <time>2020-06-19T16:44:19.800Z</time>
      </trkpt>
      <trkpt lat="45.27626" lon="4.30386">
        <ele>793.31610107422</ele>
        <time>2020-06-19T16:44:29.560Z</time>
      </trkpt>
      <trkpt lat="45.27651" lon="4.30366">
        <ele>795.78167724609</ele>
        <time>2020-06-19T16:44:39.330Z</time>
      </trkpt>
      <trkpt lat="45.27682" lon="4.30337">
        <ele>798.03961181641</ele>
        <time>2020-06-19T16:44:49.112Z</time>
      </trkpt>
      <trkpt lat="45.27687" lon="4.30329">
        <ele>798.50915527344</ele>
        <time>2020-06-19T16:44:58.897Z</time>
      </trkpt>
      <trkpt lat="45.27692" lon="4.30318">
        <ele>798.96368408203</ele>
        <time>2020-06-19T16:45:08.685Z</time>
      </trkpt>
      <trkpt lat="45.277" lon="4.3031">
        <ele>799.72961425781</ele>
        <time>2020-06-19T16:45:18.476Z</time>
      </trkpt>
      <trkpt lat="45.27716" lon="4.30308">
        <ele>801.197265625</ele>
        <time>2020-06-19T16:45:28.273Z</time>
      </trkpt>
      <trkpt lat="45.27738" lon="4.3031">
        <ele>802.79870605469</ele>
        <time>2020-06-19T16:45:38.078Z</time>
      </trkpt>
      <trkpt lat="45.27791" lon="4.30322">
        <ele>805.75213623047</ele>
        <time>2020-06-19T16:45:47.901Z</time>
      </trkpt>
      <trkpt lat="45.27862" lon="4.30347">
        <ele>810.54669189453</ele>
        <time>2020-06-19T16:45:57.749Z</time>
      </trkpt>
      <trkpt lat="45.27873" lon="4.30349">
        <ele>811.15661621094</ele>
        <time>2020-06-19T16:46:07.601Z</time>
      </trkpt>
      <trkpt lat="45.27881" lon="4.30348">
        <ele>811.63275146484</ele>
        <time>2020-06-19T16:46:17.456Z</time>
      </trkpt>
      <trkpt lat="45.27897" lon="4.30355">
        <ele>813.53527832031</ele>
        <time>2020-06-19T16:46:27.317Z</time>
      </trkpt>
      <trkpt lat="45.27911" lon="4.30358">
        <ele>815.19097900391</ele>
        <time>2020-06-19T16:46:37.183Z</time>
      </trkpt>
      <trkpt lat="45.27939" lon="4.3036">
        <ele>818.32897949219</ele>
        <time>2020-06-19T16:46:47.058Z</time>
      </trkpt>
      <trkpt lat="45.27964" lon="4.30356">
        <ele>820.88873291016</ele>
        <time>2020-06-19T16:46:56.942Z</time>
      </trkpt>
      <trkpt lat="45.2799" lon="4.30338">
        <ele>823.92327880859</ele>
        <time>2020-06-19T16:47:06.836Z</time>
      </trkpt>
      <trkpt lat="45.28054" lon="4.303">
        <ele>830.42279052734</ele>
        <time>2020-06-19T16:47:16.754Z</time>
      </trkpt>
      <trkpt lat="45.28074" lon="4.30281">
        <ele>831.32208251953</ele>
        <time>2020-06-19T16:47:26.680Z</time>
      </trkpt>
      <trkpt lat="45.28087" lon="4.30256">
        <ele>830.98669433594</ele>
        <time>2020-06-19T16:47:36.614Z</time>
      </trkpt>
      <trkpt lat="45.28096" lon="4.30245">
        <ele>831.01898193359</ele>
        <time>2020-06-19T16:47:46.552Z</time>
      </trkpt>
      <trkpt lat="45.28103" lon="4.30238">
        <ele>831.25323486328</ele>
        <time>2020-06-19T16:47:56.493Z</time>
      </trkpt>
      <trkpt lat="45.28117" lon="4.30232">
        <ele>832.00848388672</ele>
        <time>2020-06-19T16:48:06.439Z</time>
      </trkpt>
      <trkpt lat="45.28129" lon="4.30231">
        <ele>832.96234130859</ele>
        <time>2020-06-19T16:48:16.389Z</time>
      </trkpt>
      <trkpt lat="45.28146" lon="4.30232">
        <ele>833.32312011719</ele>
        <time>2020-06-19T16:48:26.345Z</time>
      </trkpt>
      <trkpt lat="45.28159" lon="4.30231">
        <ele>833.40148925781</ele>
        <time>2020-06-19T16:48:36.305Z</time>
      </trkpt>
      <trkpt lat="45.28168" lon="4.30228">
        <ele>833.58160400391</ele>
        <time>2020-06-19T16:48:46.269Z</time>
      </trkpt>
      <trkpt lat="45.28184" lon="4.30216">
        <ele>834.08685302734</ele>
        <time>2020-06-19T16:48:56.239Z</time>
      </trkpt>
      <trkpt lat="45.28201" lon="4.30198">
        <ele>834.41448974609</ele>
        <time>2020-06-19T16:49:06.216Z</time>
      </trkpt>
      <trkpt lat="45.28214" lon="4.30184">
        <ele>835.24194335938</ele>
        <time>2020-06-19T16:49:16.199Z</time>
      </trkpt>
      <trkpt lat="45.2823" lon="4.30173">
        <ele>836.52465820312</ele>
        <time>2020-06-19T16:49:26.188Z</time>
      </trkpt>
      <trkpt lat="45.28238" lon="4.30176">
        <ele>837.0439453125</ele>
        <time>2020-06-19T16:49:36.180Z</time>
      </trkpt>
      <trkpt lat="45.28258" lon="4.30198">
        <ele>838.14508056641</ele>
        <time>2020-06-19T16:49:46.180Z</time>
      </trkpt>
      <trkpt lat="45.28267" lon="4.30204">
        <ele>838.51635742188</ele>
        <time>2020-06-19T16:49:56.184Z</time>
      </trkpt>
      <trkpt lat="45.28272" lon="4.30206">
        <ele>838.81140136719</ele>
        <time>2020-06-19T16:50:06.190Z</time>
      </trkpt>
      <trkpt lat="45.28284" lon="4.30207">
        <ele>839.63464355469</ele>
        <time>2020-06-19T16:50:16.200Z</time>
      </trkpt>
      <trkpt lat="45.28297" lon="4.30204">
        <ele>840.62322998047</ele>
        <time>2020-06-19T16:50:26.214Z</time>
      </trkpt>
      <trkpt lat="45.28324" lon="4.30194">
        <ele>841.91650390625</ele>
        <time>2020-06-19T16:50:36.238Z</time>
      </trkpt>
      <trkpt lat="45.28344" lon="4.30183">
        <ele>843.68939208984</ele>
        <time>2020-06-19T16:50:46.270Z</time>
      </trkpt>
      <trkpt lat="45.28378" lon="4.30166">
        <ele>846.94866943359</ele>
        <time>2020-06-19T16:50:56.314Z</time>
      </trkpt>
      <trkpt lat="45.284" lon="4.30151">
        <ele>849.06475830078</ele>
        <time>2020-06-19T16:51:06.367Z</time>
      </trkpt>
      <trkpt lat="45.28421" lon="4.30132">
        <ele>850.74230957031</ele>
        <time>2020-06-19T16:51:16.428Z</time>
      </trkpt>
      <trkpt lat="45.2844" lon="4.30121">
        <ele>851.12646484375</ele>
        <time>2020-06-19T16:51:26.496Z</time>
      </trkpt>
      <trkpt lat="45.28467" lon="4.30113">
        <ele>850.873046875</ele>
        <time>2020-06-19T16:51:36.574Z</time>
      </trkpt>
      <trkpt lat="45.28504" lon="4.301">
        <ele>850.87097167969</ele>
        <time>2020-06-19T16:51:46.665Z</time>
      </trkpt>
      <trkpt lat="45.28542" lon="4.3009">
        <ele>849.71911621094</ele>
        <time>2020-06-19T16:51:56.769Z</time>
      </trkpt>
      <trkpt lat="45.28557" lon="4.30088">
        <ele>848.63403320312</ele>
        <time>2020-06-19T16:52:06.878Z</time>
      </trkpt>
      <trkpt lat="45.28566" lon="4.30088">
        <ele>847.86639404297</ele>
        <time>2020-06-19T16:52:16.991Z</time>
      </trkpt>
      <trkpt lat="45.28601" lon="4.3009">
        <ele>844.78796386719</ele>
        <time>2020-06-19T16:52:27.116Z</time>
      </trkpt>
      <trkpt lat="45.2862" lon="4.30096">
        <ele>841.95965576172</ele>
        <time>2020-06-19T16:52:37.247Z</time>
      </trkpt>
      <trkpt lat="45.2863" lon="4.30101">
        <ele>840.26739501953</ele>
        <time>2020-06-19T16:52:47.382Z</time>
      </trkpt>
      <trkpt lat="45.2869" lon="4.30138">
        <ele>843.0068359375</ele>
        <time>2020-06-19T16:52:57.539Z</time>
      </trkpt>
      <trkpt lat="45.28728" lon="4.30165">
        <ele>842.26379394531</ele>
        <time>2020-06-19T16:53:07.711Z</time>
      </trkpt>
      <trkpt lat="45.28786" lon="4.30197">
        <ele>837.65032958984</ele>
        <time>2020-06-19T16:53:17.904Z</time>
      </trkpt>
      <trkpt lat="45.28804" lon="4.3021">
        <ele>835.50244140625</ele>
        <time>2020-06-19T16:53:28.105Z</time>
      </trkpt>
      <trkpt lat="45.28825" lon="4.30231">
        <ele>831.59887695312</ele>
        <time>2020-06-19T16:53:38.314Z</time>
      </trkpt>
      <trkpt lat="45.28828" lon="4.30234">
        <ele>830.91339111328</ele>
        <time>2020-06-19T16:53:48.525Z</time>
      </trkpt>
      <trkpt lat="45.28845" lon="4.30239">
        <ele>827.88177490234</ele>
        <time>2020-06-19T16:53:58.741Z</time>
      </trkpt>
      <trkpt lat="45.28859" lon="4.30252">
        <ele>825.27044677734</ele>
        <time>2020-06-19T16:54:08.963Z</time>
      </trkpt>
      <trkpt lat="45.28868" lon="4.30257">
        <ele>823.55780029297</ele>
        <time>2020-06-19T16:54:19.189Z</time>
      </trkpt>
      <trkpt lat="45.28897" lon="4.30269">
        <ele>820.66033935547</ele>
        <time>2020-06-19T16:54:29.425Z</time>
      </trkpt>
      <trkpt lat="45.2892" lon="4.30269">
        <ele>819.80902099609</ele>
        <time>2020-06-19T16:54:39.669Z</time>
      </trkpt>
      <trkpt lat="45.28935" lon="4.30273">
        <ele>819.16760253906</ele>
        <time>2020-06-19T16:54:49.918Z</time>
      </trkpt>
      <trkpt lat="45.2895" lon="4.30275">
        <ele>818.61199951172</ele>
        <time>2020-06-19T16:55:00.172Z</time>
      </trkpt>
      <trkpt lat="45.28964" lon="4.30281">
        <ele>818.06439208984</ele>
        <time>2020-06-19T16:55:10.431Z</time>
      </trkpt>
      <trkpt lat="45.28981" lon="4.30285">
        <ele>818.38604736328</ele>
        <time>2020-06-19T16:55:20.696Z</time>
      </trkpt>
      <trkpt lat="45.28994" lon="4.30282">
        <ele>818.44128417969</ele>
        <time>2020-06-19T16:55:30.966Z</time>
      </trkpt>
      <trkpt lat="45.2903" lon="4.30267">
        <ele>819.56591796875</ele>
        <time>2020-06-19T16:55:41.249Z</time>
      </trkpt>
      <trkpt lat="45.29055" lon="4.30253">
        <ele>819.80047607422</ele>
        <time>2020-06-19T16:55:51.541Z</time>
      </trkpt>
      <trkpt lat="45.29124" lon="4.30189">
        <ele>829.05828857422</ele>
        <time>2020-06-19T16:56:01.862Z</time>
      </trkpt>
      <trkpt lat="45.29161" lon="4.30168">
        <ele>835.24639892578</ele>
        <time>2020-06-19T16:56:12.196Z</time>
      </trkpt>
      <trkpt lat="45.29169" lon="4.30165">
        <ele>836.61651611328</ele>
        <time>2020-06-19T16:56:22.533Z</time>
      </trkpt>
      <trkpt lat="45.29179" lon="4.30159">
        <ele>838.66442871094</ele>
        <time>2020-06-19T16:56:32.874Z</time>
      </trkpt>
      <trkpt lat="45.29191" lon="4.30149">
        <ele>840.88714599609</ele>
        <time>2020-06-19T16:56:43.220Z</time>
      </trkpt>
      <trkpt lat="45.29217" lon="4.30121">
        <ele>846.02899169922</ele>
        <time>2020-06-19T16:56:53.577Z</time>
      </trkpt>
      <trkpt lat="45.29224" lon="4.30109">
        <ele>846.48358154297</ele>
        <time>2020-06-19T16:57:03.938Z</time>
      </trkpt>
      <trkpt lat="45.29237" lon="4.30095">
        <ele>846.39849853516</ele>
        <time>2020-06-19T16:57:14.304Z</time>
      </trkpt>
      <trkpt lat="45.29286" lon="4.30027">
        <ele>848.73663330078</ele>
        <time>2020-06-19T16:57:24.694Z</time>
      </trkpt>
      <trkpt lat="45.29326" lon="4.29984">
        <ele>854.24481201172</ele>
        <time>2020-06-19T16:57:35.101Z</time>
      </trkpt>
      <trkpt lat="45.29383" lon="4.29933">
        <ele>862.86218261719</ele>
        <time>2020-06-19T16:57:45.532Z</time>
      </trkpt>
      <trkpt lat="45.29417" lon="4.29887">
        <ele>865.12268066406</ele>
        <time>2020-06-19T16:57:55.979Z</time>
      </trkpt>
      <trkpt lat="45.29433" lon="4.2986">
        <ele>868.77557373047</ele>
        <time>2020-06-19T16:58:06.435Z</time>
      </trkpt>
      <trkpt lat="45.29444" lon="4.29837">
        <ele>870.81945800781</ele>
        <time>2020-06-19T16:58:16.897Z</time>
      </trkpt>
      <trkpt lat="45.29456" lon="4.29796">
        <ele>873.59185791016</ele>
        <time>2020-06-19T16:58:27.370Z</time>
      </trkpt>
      <trkpt lat="45.29457" lon="4.29779">
        <ele>874.26153564453</ele>
        <time>2020-06-19T16:58:37.847Z</time>
      </trkpt>
      <trkpt lat="45.29462" lon="4.29755">
        <ele>875.52270507812</ele>
        <time>2020-06-19T16:58:48.330Z</time>
      </trkpt>
      <trkpt lat="45.29464" lon="4.29738">
        <ele>876.08850097656</ele>
        <time>2020-06-19T16:58:58.817Z</time>
      </trkpt>
      <trkpt lat="45.29468" lon="4.29729">
        <ele>876.76452636719</ele>
        <time>2020-06-19T16:59:09.307Z</time>
      </trkpt>
      <trkpt lat="45.29491" lon="4.29645">
        <ele>881.53741455078</ele>
        <time>2020-06-19T16:59:19.819Z</time>
      </trkpt>
      <trkpt lat="45.29495" lon="4.2964">
        <ele>881.64672851562</ele>
        <time>2020-06-19T16:59:30.333Z</time>
      </trkpt>
      <trkpt lat="45.29507" lon="4.29594">
        <ele>879.81903076172</ele>
        <time>2020-06-19T16:59:40.859Z</time>
      </trkpt>
      <trkpt lat="45.29523" lon="4.29487">
        <ele>870.3330078125</ele>
        <time>2020-06-19T16:59:51.411Z</time>
      </trkpt>
      <trkpt lat="45.29543" lon="4.29403">
        <ele>861.02569580078</ele>
        <time>2020-06-19T17:00:01.985Z</time>
      </trkpt>
      <trkpt lat="45.29562" lon="4.29346">
        <ele>855.41748046875</ele>
        <time>2020-06-19T17:00:12.574Z</time>
      </trkpt>
      <trkpt lat="45.29594" lon="4.29261">
        <ele>850.52392578125</ele>
        <time>2020-06-19T17:00:23.187Z</time>
      </trkpt>
      <trkpt lat="45.29618" lon="4.29206">
        <ele>849.8291015625</ele>
        <time>2020-06-19T17:00:33.816Z</time>
      </trkpt>
      <trkpt lat="45.2963" lon="4.2917">
        <ele>849.36358642578</ele>
        <time>2020-06-19T17:00:44.454Z</time>
      </trkpt>
      <trkpt lat="45.29633" lon="4.29144">
        <ele>848.83233642578</ele>
        <time>2020-06-19T17:00:55.099Z</time>
      </trkpt>
      <trkpt lat="45.29635" lon="4.29092">
        <ele>848</ele>
        <time>2020-06-19T17:01:05.756Z</time>
      </trkpt>
      <trkpt lat="45.29635" lon="4.28991">
        <ele>847.76928710938</ele>
        <time>2020-06-19T17:01:16.438Z</time>
      </trkpt>
      <trkpt lat="45.29637" lon="4.28943">
        <ele>847.72778320312</ele>
        <time>2020-06-19T17:01:27.131Z</time>
      </trkpt>
      <trkpt lat="45.2965" lon="4.2886">
        <ele>849.32763671875</ele>
        <time>2020-06-19T17:01:37.845Z</time>
      </trkpt>
      <trkpt lat="45.29658" lon="4.28826">
        <ele>849.45263671875</ele>
        <time>2020-06-19T17:01:48.568Z</time>
      </trkpt>
      <trkpt lat="45.29667" lon="4.28795">
        <ele>849.49591064453</ele>
        <time>2020-06-19T17:01:59.299Z</time>
      </trkpt>
      <trkpt lat="45.29678" lon="4.28769">
        <ele>848.87518310547</ele>
        <time>2020-06-19T17:02:10.037Z</time>
      </trkpt>
      <trkpt lat="45.29692" lon="4.28726">
        <ele>848</ele>
        <time>2020-06-19T17:02:20.787Z</time>
      </trkpt>
      <trkpt lat="45.29711" lon="4.28681">
        <ele>847.25152587891</ele>
        <time>2020-06-19T17:02:31.550Z</time>
      </trkpt>
      <trkpt lat="45.29766" lon="4.28576">
        <ele>839.60961914062</ele>
        <time>2020-06-19T17:02:42.344Z</time>
      </trkpt>
      <trkpt lat="45.29793" lon="4.28517">
        <ele>835.31945800781</ele>
        <time>2020-06-19T17:02:53.156Z</time>
      </trkpt>
      <trkpt lat="45.29805" lon="4.28499">
        <ele>833.40869140625</ele>
        <time>2020-06-19T17:03:03.974Z</time>
      </trkpt>
      <trkpt lat="45.29825" lon="4.28473">
        <ele>829.92034912109</ele>
        <time>2020-06-19T17:03:14.801Z</time>
      </trkpt>
      <trkpt lat="45.29854" lon="4.28443">
        <ele>827.40942382812</ele>
        <time>2020-06-19T17:03:25.640Z</time>
      </trkpt>
      <trkpt lat="45.29909" lon="4.28397">
        <ele>816.37396240234</ele>
        <time>2020-06-19T17:03:36.501Z</time>
      </trkpt>
      <trkpt lat="45.29963" lon="4.28358">
        <ele>807.37725830078</ele>
        <time>2020-06-19T17:03:47.383Z</time>
      </trkpt>
      <trkpt lat="45.30011" lon="4.28304">
        <ele>797.40124511719</ele>
        <time>2020-06-19T17:03:58.286Z</time>
      </trkpt>
      <trkpt lat="45.30032" lon="4.28272">
        <ele>792.43487548828</ele>
        <time>2020-06-19T17:04:09.200Z</time>
      </trkpt>
      <trkpt lat="45.30052" lon="4.28269">
        <ele>792.46130371094</ele>
        <time>2020-06-19T17:04:20.121Z</time>
      </trkpt>
      <trkpt lat="45.30065" lon="4.28269">
        <ele>792.60028076172</ele>
        <time>2020-06-19T17:04:31.047Z</time>
      </trkpt>
      <trkpt lat="45.30086" lon="4.28276">
        <ele>792.61193847656</ele>
        <time>2020-06-19T17:04:41.980Z</time>
      </trkpt>
      <trkpt lat="45.30121" lon="4.28293">
        <ele>794.61499023438</ele>
        <time>2020-06-19T17:04:52.926Z</time>
      </trkpt>
      <trkpt lat="45.30158" lon="4.283">
        <ele>794.66101074219</ele>
        <time>2020-06-19T17:05:03.885Z</time>
      </trkpt>
      <trkpt lat="45.30162" lon="4.28297">
        <ele>794.92950439453</ele>
        <time>2020-06-19T17:05:14.845Z</time>
      </trkpt>
      <trkpt lat="45.30165" lon="4.28289">
        <ele>795.10101318359</ele>
        <time>2020-06-19T17:05:25.807Z</time>
      </trkpt>
      <trkpt lat="45.30166" lon="4.28278">
        <ele>795.30920410156</ele>
        <time>2020-06-19T17:05:36.772Z</time>
      </trkpt>
      <trkpt lat="45.30167" lon="4.28238">
        <ele>797.71270751953</ele>
        <time>2020-06-19T17:05:47.747Z</time>
      </trkpt>
      <trkpt lat="45.3016" lon="4.28175">
        <ele>801.36694335938</ele>
        <time>2020-06-19T17:05:58.738Z</time>
      </trkpt>
      <trkpt lat="45.30156" lon="4.28104">
        <ele>805.36480712891</ele>
        <time>2020-06-19T17:06:09.746Z</time>
      </trkpt>
      <trkpt lat="45.30158" lon="4.28098">
        <ele>805.88110351562</ele>
        <time>2020-06-19T17:06:20.755Z</time>
      </trkpt>
      <trkpt lat="45.30161" lon="4.28096">
        <ele>806.19287109375</ele>
        <time>2020-06-19T17:06:31.766Z</time>
      </trkpt>
      <trkpt lat="45.30167" lon="4.28101">
        <ele>805.92303466797</ele>
        <time>2020-06-19T17:06:42.779Z</time>
      </trkpt>
      <trkpt lat="45.30185" lon="4.28125">
        <ele>804.88012695312</ele>
        <time>2020-06-19T17:06:53.800Z</time>
      </trkpt>
      <trkpt lat="45.30221" lon="4.28183">
        <ele>804.11468505859</ele>
        <time>2020-06-19T17:07:04.840Z</time>
      </trkpt>
      <trkpt lat="45.30271" lon="4.28255">
        <ele>803.57586669922</ele>
        <time>2020-06-19T17:07:15.905Z</time>
      </trkpt>
      <trkpt lat="45.30307" lon="4.283">
        <ele>802.76727294922</ele>
        <time>2020-06-19T17:07:26.987Z</time>
      </trkpt>
      <trkpt lat="45.30318" lon="4.28317">
        <ele>801.83746337891</ele>
        <time>2020-06-19T17:07:38.074Z</time>
      </trkpt>
      <trkpt lat="45.30321" lon="4.2833">
        <ele>800.95745849609</ele>
        <time>2020-06-19T17:07:49.164Z</time>
      </trkpt>
      <trkpt lat="45.30316" lon="4.28366">
        <ele>798.42071533203</ele>
        <time>2020-06-19T17:08:00.263Z</time>
      </trkpt>
      <trkpt lat="45.30308" lon="4.28393">
        <ele>797.90539550781</ele>
        <time>2020-06-19T17:08:11.369Z</time>
      </trkpt>
      <trkpt lat="45.30307" lon="4.28398">
        <ele>797.82861328125</ele>
        <time>2020-06-19T17:08:22.477Z</time>
      </trkpt>
      <trkpt lat="45.3031" lon="4.2841">
        <ele>797.74353027344</ele>
        <time>2020-06-19T17:08:33.588Z</time>
      </trkpt>
      <trkpt lat="45.30326" lon="4.28444">
        <ele>797.73297119141</ele>
        <time>2020-06-19T17:08:44.709Z</time>
      </trkpt>
      <trkpt lat="45.30343" lon="4.28489">
        <ele>800.17785644531</ele>
        <time>2020-06-19T17:08:55.842Z</time>
      </trkpt>
      <trkpt lat="45.30358" lon="4.28508">
        <ele>801.46075439453</ele>
        <time>2020-06-19T17:09:06.982Z</time>
      </trkpt>
      <trkpt lat="45.30368" lon="4.28529">
        <ele>803.54333496094</ele>
        <time>2020-06-19T17:09:18.128Z</time>
      </trkpt>
      <trkpt lat="45.30378" lon="4.28542">
        <ele>804.89184570312</ele>
        <time>2020-06-19T17:09:29.279Z</time>
      </trkpt>
      <trkpt lat="45.30402" lon="4.28566">
        <ele>809.28082275391</ele>
        <time>2020-06-19T17:09:40.440Z</time>
      </trkpt>
      <trkpt lat="45.30427" lon="4.28602">
        <ele>815.66516113281</ele>
        <time>2020-06-19T17:09:51.614Z</time>
      </trkpt>
      <trkpt lat="45.3044" lon="4.28635">
        <ele>820.01721191406</ele>
        <time>2020-06-19T17:10:02.797Z</time>
      </trkpt>
      <trkpt lat="45.30449" lon="4.28646">
        <ele>821.42474365234</ele>
        <time>2020-06-19T17:10:13.984Z</time>
      </trkpt>
      <trkpt lat="45.30454" lon="4.2866">
        <ele>823.05670166016</ele>
        <time>2020-06-19T17:10:25.175Z</time>
      </trkpt>
      <trkpt lat="45.30463" lon="4.28667">
        <ele>824.13037109375</ele>
        <time>2020-06-19T17:10:36.369Z</time>
      </trkpt>
      <trkpt lat="45.3048" lon="4.28676">
        <ele>825.45092773438</ele>
        <time>2020-06-19T17:10:47.569Z</time>
      </trkpt>
      <trkpt lat="45.30493" lon="4.28672">
        <ele>825.39739990234</ele>
        <time>2020-06-19T17:10:58.774Z</time>
      </trkpt>
      <trkpt lat="45.30499" lon="4.28674">
        <ele>825.66729736328</ele>
        <time>2020-06-19T17:11:09.981Z</time>
      </trkpt>
      <trkpt lat="45.3051" lon="4.28673">
        <ele>825.81030273438</ele>
        <time>2020-06-19T17:11:21.192Z</time>
      </trkpt>
      <trkpt lat="45.3052" lon="4.28674">
        <ele>826.20416259766</ele>
        <time>2020-06-19T17:11:32.407Z</time>
      </trkpt>
      <trkpt lat="45.30568" lon="4.28657">
        <ele>826.09692382812</ele>
        <time>2020-06-19T17:11:43.639Z</time>
      </trkpt>
      <trkpt lat="45.30604" lon="4.28629">
        <ele>825.69915771484</ele>
        <time>2020-06-19T17:11:54.884Z</time>
      </trkpt>
      <trkpt lat="45.3064" lon="4.28605">
        <ele>826.70904541016</ele>
        <time>2020-06-19T17:12:06.143Z</time>
      </trkpt>
      <trkpt lat="45.30692" lon="4.28566">
        <ele>829.20556640625</ele>
        <time>2020-06-19T17:12:17.423Z</time>
      </trkpt>
      <trkpt lat="45.30702" lon="4.28561">
        <ele>829.20581054688</ele>
        <time>2020-06-19T17:12:28.706Z</time>
      </trkpt>
      <trkpt lat="45.3071" lon="4.28561">
        <ele>829.40972900391</ele>
        <time>2020-06-19T17:12:39.992Z</time>
      </trkpt>
      <trkpt lat="45.30714" lon="4.28553">
        <ele>829.125</ele>
        <time>2020-06-19T17:12:51.280Z</time>
      </trkpt>
      <trkpt lat="45.3072" lon="4.28471">
        <ele>830.43115234375</ele>
        <time>2020-06-19T17:13:02.588Z</time>
      </trkpt>
      <trkpt lat="45.30718" lon="4.28446">
        <ele>831.22045898438</ele>
        <time>2020-06-19T17:13:13.903Z</time>
      </trkpt>
      <trkpt lat="45.30696" lon="4.28383">
        <ele>835.81256103516</ele>
        <time>2020-06-19T17:13:25.235Z</time>
      </trkpt>
      <trkpt lat="45.30684" lon="4.28355">
        <ele>836.90679931641</ele>
        <time>2020-06-19T17:13:36.575Z</time>
      </trkpt>
      <trkpt lat="45.30673" lon="4.28334">
        <ele>836.82135009766</ele>
        <time>2020-06-19T17:13:47.921Z</time>
      </trkpt>
      <trkpt lat="45.30644" lon="4.28293">
        <ele>835.84942626953</ele>
        <time>2020-06-19T17:13:59.281Z</time>
      </trkpt>
      <trkpt lat="45.30618" lon="4.2825">
        <ele>833.685546875</ele>
        <time>2020-06-19T17:14:10.655Z</time>
      </trkpt>
      <trkpt lat="45.30603" lon="4.28225">
        <ele>831.64709472656</ele>
        <time>2020-06-19T17:14:22.037Z</time>
      </trkpt>
      <trkpt lat="45.30593" lon="4.28206">
        <ele>830.57080078125</ele>
        <time>2020-06-19T17:14:33.425Z</time>
      </trkpt>
      <trkpt lat="45.3059" lon="4.28196">
        <ele>830.33148193359</ele>
        <time>2020-06-19T17:14:44.815Z</time>
      </trkpt>
      <trkpt lat="45.30586" lon="4.28173">
        <ele>829.77465820312</ele>
        <time>2020-06-19T17:14:56.211Z</time>
      </trkpt>
      <trkpt lat="45.30582" lon="4.28117">
        <ele>828.01538085938</ele>
        <time>2020-06-19T17:15:07.621Z</time>
      </trkpt>
      <trkpt lat="45.30574" lon="4.28089">
        <ele>828.87048339844</ele>
        <time>2020-06-19T17:15:19.038Z</time>
      </trkpt>
      <trkpt lat="45.30572" lon="4.28074">
        <ele>829.90570068359</ele>
        <time>2020-06-19T17:15:30.459Z</time>
      </trkpt>
      <trkpt lat="45.30574" lon="4.28063">
        <ele>831.36187744141</ele>
        <time>2020-06-19T17:15:41.883Z</time>
      </trkpt>
      <trkpt lat="45.30587" lon="4.28043">
        <ele>833.21893310547</ele>
        <time>2020-06-19T17:15:53.313Z</time>
      </trkpt>
      <trkpt lat="45.30625" lon="4.27991">
        <ele>839.42199707031</ele>
        <time>2020-06-19T17:16:04.762Z</time>
      </trkpt>
      <trkpt lat="45.30628" lon="4.27988">
        <ele>839.83233642578</ele>
        <time>2020-06-19T17:16:16.212Z</time>
      </trkpt>
      <trkpt lat="45.30634" lon="4.27988">
        <ele>840.62756347656</ele>
        <time>2020-06-19T17:16:27.664Z</time>
      </trkpt>
      <trkpt lat="45.30646" lon="4.27994">
        <ele>842.10546875</ele>
        <time>2020-06-19T17:16:39.120Z</time>
      </trkpt>
      <trkpt lat="45.30655" lon="4.27993">
        <ele>843.49603271484</ele>
        <time>2020-06-19T17:16:50.579Z</time>
      </trkpt>
      <trkpt lat="45.30662" lon="4.27989">
        <ele>844.87243652344</ele>
        <time>2020-06-19T17:17:02.041Z</time>
      </trkpt>
      <trkpt lat="45.30672" lon="4.27977">
        <ele>846.68493652344</ele>
        <time>2020-06-19T17:17:13.508Z</time>
      </trkpt>
      <trkpt lat="45.30678" lon="4.27974">
        <ele>847.21832275391</ele>
        <time>2020-06-19T17:17:24.976Z</time>
      </trkpt>
      <trkpt lat="45.30682" lon="4.27976">
        <ele>847.65570068359</ele>
        <time>2020-06-19T17:17:36.446Z</time>
      </trkpt>
      <trkpt lat="45.30684" lon="4.27975">
        <ele>847.86566162109</ele>
        <time>2020-06-19T17:17:47.917Z</time>
      </trkpt>
      <trkpt lat="45.30687" lon="4.27965">
        <ele>848.21514892578</ele>
        <time>2020-06-19T17:17:59.390Z</time>
      </trkpt>
      <trkpt lat="45.30691" lon="4.27961">
        <ele>848.63348388672</ele>
        <time>2020-06-19T17:18:10.865Z</time>
      </trkpt>
      <trkpt lat="45.30682" lon="4.27978">
        <ele>847.63348388672</ele>
        <time>2020-06-19T17:18:22.345Z</time>
      </trkpt>
      <trkpt lat="45.30683" lon="4.27979">
        <ele>847.67810058594</ele>
        <time>2020-06-19T17:18:33.826Z</time>
      </trkpt>
      <trkpt lat="45.30683" lon="4.27979">
        <ele>847.67889404297</ele>
        <time>2020-06-19T17:18:45.307Z</time>
      </trkpt>
      <trkpt lat="45.30698" lon="4.28012">
        <ele>848.76623535156</ele>
        <time>2020-06-19T17:18:56.797Z</time>
      </trkpt>
      <trkpt lat="45.30699" lon="4.28012">
        <ele>848.78875732422</ele>
        <time>2020-06-19T17:19:08.287Z</time>
      </trkpt>
      <trkpt lat="45.30698" lon="4.28012">
        <ele>848.76623535156</ele>
        <time>2020-06-19T17:19:19.778Z</time>
      </trkpt>
    </trkseg>
  </trk>
</gpx>